<?xml version="1.0" encoding="UTF-8"?>
<gpx xmlns="http://www.topografix.com/GPX/1/1" version="1.1" xmlns:xsi="http://www.w3.org/2001/XMLSchema-instance" xsi:schemaLocation="http://www.topografix.com/GPX/1/1 http://www.topografix.com/GPX/1/1/gpx.xsd" creator="MotionXGPSFull 24.4 Build 5112 R64">
<trk>
<name><![CDATA[Troop Hike Tai O]]></name>
<desc><![CDATA[Oct 17, 2020 11:06 am]]></desc>
<trkseg>
<trkpt lat="22.2443156" lon="113.8912632">
<ele>268.042</ele>
<time>2020-10-17T03:06:40.408Z</time>
</trkpt>
<trkpt lat="22.2443156" lon="113.8912632">
<ele>267.957</ele>
<time>2020-10-17T03:06:41.223Z</time>
</trkpt>
<trkpt lat="22.2442473" lon="113.8911914">
<ele>267.824</ele>
<time>2020-10-17T03:06:54.720Z</time>
</trkpt>
<trkpt lat="22.2442397" lon="113.8911819">
<ele>267.507</ele>
<time>2020-10-17T03:06:56.041Z</time>
</trkpt>
<trkpt lat="22.2441747" lon="113.8911104">
<ele>266.942</ele>
<time>2020-10-17T03:07:07.200Z</time>
</trkpt>
<trkpt lat="22.2440919" lon="113.8910720">
<ele>266.413</ele>
<time>2020-10-17T03:07:19.053Z</time>
</trkpt>
<trkpt lat="22.2440028" lon="113.8910415">
<ele>266.296</ele>
<time>2020-10-17T03:07:28.793Z</time>
</trkpt>
<trkpt lat="22.2439114" lon="113.8910809">
<ele>266.711</ele>
<time>2020-10-17T03:07:38.781Z</time>
</trkpt>
<trkpt lat="22.2438296" lon="113.8911328">
<ele>267.711</ele>
<time>2020-10-17T03:07:48.662Z</time>
</trkpt>
<trkpt lat="22.2437548" lon="113.8911960">
<ele>269.172</ele>
<time>2020-10-17T03:07:57.747Z</time>
</trkpt>
<trkpt lat="22.2436708" lon="113.8911503">
<ele>270.560</ele>
<time>2020-10-17T03:08:07.069Z</time>
</trkpt>
<trkpt lat="22.2435810" lon="113.8911742">
<ele>271.335</ele>
<time>2020-10-17T03:08:16.564Z</time>
</trkpt>
<trkpt lat="22.2435185" lon="113.8912459">
<ele>271.573</ele>
<time>2020-10-17T03:08:25.999Z</time>
</trkpt>
<trkpt lat="22.2435185" lon="113.8912459">
<ele>271.626</ele>
<time>2020-10-17T03:08:39.999Z</time>
</trkpt>
<trkpt lat="22.2435185" lon="113.8912459">
<ele>271.604</ele>
<time>2020-10-17T03:08:47.823Z</time>
</trkpt>
<trkpt lat="22.2434681" lon="113.8909867">
<ele>271.488</ele>
<time>2020-10-17T03:09:15.998Z</time>
</trkpt>
<trkpt lat="22.2434681" lon="113.8909867">
<ele>271.362</ele>
<time>2020-10-17T03:09:21.998Z</time>
</trkpt>
<trkpt lat="22.2434681" lon="113.8909867">
<ele>271.281</ele>
<time>2020-10-17T03:09:22.098Z</time>
</trkpt>
<trkpt lat="22.2435294" lon="113.8909044">
<ele>271.117</ele>
<time>2020-10-17T03:09:47.312Z</time>
</trkpt>
<trkpt lat="22.2436037" lon="113.8908382">
<ele>272.229</ele>
<time>2020-10-17T03:09:58.033Z</time>
</trkpt>
<trkpt lat="22.2436200" lon="113.8907366">
<ele>275.617</ele>
<time>2020-10-17T03:10:08.182Z</time>
</trkpt>
<trkpt lat="22.2435788" lon="113.8906404">
<ele>280.145</ele>
<time>2020-10-17T03:10:18.840Z</time>
</trkpt>
<trkpt lat="22.2435772" lon="113.8905395">
<ele>284.171</ele>
<time>2020-10-17T03:10:27.998Z</time>
</trkpt>
<trkpt lat="22.2435772" lon="113.8905395">
<ele>287.062</ele>
<time>2020-10-17T03:10:32.998Z</time>
</trkpt>
<trkpt lat="22.2435772" lon="113.8905395">
<ele>288.267</ele>
<time>2020-10-17T03:11:29.165Z</time>
</trkpt>
<trkpt lat="22.2435295" lon="113.8904386">
<ele>287.987</ele>
<time>2020-10-17T03:11:46.226Z</time>
</trkpt>
<trkpt lat="22.2435259" lon="113.8903406">
<ele>288.136</ele>
<time>2020-10-17T03:11:55.303Z</time>
</trkpt>
<trkpt lat="22.2434939" lon="113.8902464">
<ele>290.197</ele>
<time>2020-10-17T03:12:04.143Z</time>
</trkpt>
<trkpt lat="22.2434572" lon="113.8901578">
<ele>293.143</ele>
<time>2020-10-17T03:12:11.998Z</time>
</trkpt>
<trkpt lat="22.2434572" lon="113.8901578">
<ele>295.271</ele>
<time>2020-10-17T03:12:18.998Z</time>
</trkpt>
<trkpt lat="22.2434572" lon="113.8901578">
<ele>296.062</ele>
<time>2020-10-17T03:12:40.998Z</time>
</trkpt>
<trkpt lat="22.2434454" lon="113.8900536">
<ele>295.813</ele>
<time>2020-10-17T03:12:58.525Z</time>
</trkpt>
<trkpt lat="22.2433803" lon="113.8899773">
<ele>295.796</ele>
<time>2020-10-17T03:13:10.026Z</time>
</trkpt>
<trkpt lat="22.2432889" lon="113.8899735">
<ele>296.947</ele>
<time>2020-10-17T03:13:20.551Z</time>
</trkpt>
<trkpt lat="22.2432051" lon="113.8900221">
<ele>298.820</ele>
<time>2020-10-17T03:13:31.580Z</time>
</trkpt>
<trkpt lat="22.2431414" lon="113.8900988">
<ele>300.753</ele>
<time>2020-10-17T03:13:43.671Z</time>
</trkpt>
<trkpt lat="22.2430803" lon="113.8901716">
<ele>302.700</ele>
<time>2020-10-17T03:13:56.455Z</time>
</trkpt>
<trkpt lat="22.2430225" lon="113.8902500">
<ele>304.669</ele>
<time>2020-10-17T03:14:09.136Z</time>
</trkpt>
<trkpt lat="22.2429619" lon="113.8903257">
<ele>306.606</ele>
<time>2020-10-17T03:14:22.999Z</time>
</trkpt>
<trkpt lat="22.2429619" lon="113.8903257">
<ele>308.208</ele>
<time>2020-10-17T03:14:25.999Z</time>
</trkpt>
<trkpt lat="22.2429619" lon="113.8903257">
<ele>308.938</ele>
<time>2020-10-17T03:14:29.761Z</time>
</trkpt>
<trkpt lat="22.2429619" lon="113.8903257">
<ele>308.203</ele>
<time>2020-10-17T03:14:40.999Z</time>
</trkpt>
<trkpt lat="22.2429619" lon="113.8903257">
<ele>307.867</ele>
<time>2020-10-17T03:14:41.099Z</time>
</trkpt>
<trkpt lat="22.2429619" lon="113.8903257">
<ele>307.780</ele>
<time>2020-10-17T03:14:42.999Z</time>
</trkpt>
<trkpt lat="22.2429619" lon="113.8903257">
<ele>307.763</ele>
<time>2020-10-17T03:14:55.999Z</time>
</trkpt>
<trkpt lat="22.2429619" lon="113.8903257">
<ele>307.635</ele>
<time>2020-10-17T03:14:56.099Z</time>
</trkpt>
<trkpt lat="22.2428684" lon="113.8903520">
<ele>307.398</ele>
<time>2020-10-17T03:15:21.988Z</time>
</trkpt>
<trkpt lat="22.2428017" lon="113.8902794">
<ele>308.383</ele>
<time>2020-10-17T03:15:36.517Z</time>
</trkpt>
<trkpt lat="22.2427597" lon="113.8901871">
<ele>311.198</ele>
<time>2020-10-17T03:15:48.650Z</time>
</trkpt>
<trkpt lat="22.2427585" lon="113.8900895">
<ele>314.626</ele>
<time>2020-10-17T03:15:59.576Z</time>
</trkpt>
<trkpt lat="22.2427268" lon="113.8899980">
<ele>317.161</ele>
<time>2020-10-17T03:16:10.652Z</time>
</trkpt>
<trkpt lat="22.2426978" lon="113.8899045">
<ele>318.794</ele>
<time>2020-10-17T03:16:21.414Z</time>
</trkpt>
<trkpt lat="22.2426765" lon="113.8898031">
<ele>320.109</ele>
<time>2020-10-17T03:16:31.990Z</time>
</trkpt>
<trkpt lat="22.2426431" lon="113.8897093">
<ele>321.588</ele>
<time>2020-10-17T03:16:41.818Z</time>
</trkpt>
<trkpt lat="22.2426438" lon="113.8896105">
<ele>323.206</ele>
<time>2020-10-17T03:16:52.130Z</time>
</trkpt>
<trkpt lat="22.2425887" lon="113.8895326">
<ele>324.782</ele>
<time>2020-10-17T03:17:03.757Z</time>
</trkpt>
<trkpt lat="22.2424961" lon="113.8895209">
<ele>326.512</ele>
<time>2020-10-17T03:17:17.999Z</time>
</trkpt>
<trkpt lat="22.2424961" lon="113.8895209">
<ele>328.355</ele>
<time>2020-10-17T03:17:32.999Z</time>
</trkpt>
<trkpt lat="22.2424961" lon="113.8895209">
<ele>329.406</ele>
<time>2020-10-17T03:18:23.178Z</time>
</trkpt>
<trkpt lat="22.2424005" lon="113.8894616">
<ele>329.199</ele>
<time>2020-10-17T03:19:23.539Z</time>
</trkpt>
<trkpt lat="22.2423289" lon="113.8893995">
<ele>329.562</ele>
<time>2020-10-17T03:20:10.385Z</time>
</trkpt>
<trkpt lat="22.2422514" lon="113.8893473">
<ele>332.412</ele>
<time>2020-10-17T03:20:56.911Z</time>
</trkpt>
<trkpt lat="22.2421985" lon="113.8892688">
<ele>336.562</ele>
<time>2020-10-17T03:21:42.795Z</time>
</trkpt>
<trkpt lat="22.2421161" lon="113.8892114">
<ele>339.499</ele>
<time>2020-10-17T03:22:32.758Z</time>
</trkpt>
<trkpt lat="22.2420453" lon="113.8891445">
<ele>340.919</ele>
<time>2020-10-17T03:23:20.751Z</time>
</trkpt>
<trkpt lat="22.2419773" lon="113.8890749">
<ele>341.657</ele>
<time>2020-10-17T03:24:08.514Z</time>
</trkpt>
<trkpt lat="22.2419073" lon="113.8890033">
<ele>342.513</ele>
<time>2020-10-17T03:24:57.698Z</time>
</trkpt>
<trkpt lat="22.2418616" lon="113.8889104">
<ele>343.900</ele>
<time>2020-10-17T03:25:47.341Z</time>
</trkpt>
<trkpt lat="22.2417905" lon="113.8888471">
<ele>345.437</ele>
<time>2020-10-17T03:26:29.531Z</time>
</trkpt>
<trkpt lat="22.2417091" lon="113.8888042">
<ele>347.423</ele>
<time>2020-10-17T03:27:23.999Z</time>
</trkpt>
<trkpt lat="22.2417091" lon="113.8888042">
<ele>349.644</ele>
<time>2020-10-17T03:27:24.999Z</time>
</trkpt>
<trkpt lat="22.2417091" lon="113.8888042">
<ele>350.875</ele>
<time>2020-10-17T03:39:15.144Z</time>
</trkpt>
<trkpt lat="22.2416231" lon="113.8887356">
<ele>350.640</ele>
<time>2020-10-17T03:39:46.309Z</time>
</trkpt>
<trkpt lat="22.2416342" lon="113.8888326">
<ele>350.958</ele>
<time>2020-10-17T03:40:02.475Z</time>
</trkpt>
<trkpt lat="22.2415562" lon="113.8887840">
<ele>353.608</ele>
<time>2020-10-17T03:40:21.555Z</time>
</trkpt>
<trkpt lat="22.2414705" lon="113.8887344">
<ele>357.373</ele>
<time>2020-10-17T03:40:38.812Z</time>
</trkpt>
<trkpt lat="22.2413924" lon="113.8886853">
<ele>360.687</ele>
<time>2020-10-17T03:40:53.809Z</time>
</trkpt>
<trkpt lat="22.2413036" lon="113.8886540">
<ele>363.363</ele>
<time>2020-10-17T03:41:10.331Z</time>
</trkpt>
<trkpt lat="22.2412457" lon="113.8885701">
<ele>366.189</ele>
<time>2020-10-17T03:41:27.474Z</time>
</trkpt>
<trkpt lat="22.2411856" lon="113.8884873">
<ele>369.970</ele>
<time>2020-10-17T03:41:45.105Z</time>
</trkpt>
<trkpt lat="22.2411241" lon="113.8885643">
<ele>374.347</ele>
<time>2020-10-17T03:42:04.281Z</time>
</trkpt>
<trkpt lat="22.2410707" lon="113.8886481">
<ele>379.327</ele>
<time>2020-10-17T03:42:24.999Z</time>
</trkpt>
<trkpt lat="22.2410707" lon="113.8886481">
<ele>384.674</ele>
<time>2020-10-17T03:42:28.999Z</time>
</trkpt>
<trkpt lat="22.2410707" lon="113.8886481">
<ele>387.777</ele>
<time>2020-10-17T03:42:29.099Z</time>
</trkpt>
<trkpt lat="22.2410707" lon="113.8886481">
<ele>385.610</ele>
<time>2020-10-17T03:42:46.999Z</time>
</trkpt>
<trkpt lat="22.2410707" lon="113.8886481">
<ele>384.492</ele>
<time>2020-10-17T03:42:47.099Z</time>
</trkpt>
<trkpt lat="22.2410707" lon="113.8886481">
<ele>384.785</ele>
<time>2020-10-17T03:42:48.999Z</time>
</trkpt>
<trkpt lat="22.2410707" lon="113.8886481">
<ele>384.983</ele>
<time>2020-10-17T03:42:57.640Z</time>
</trkpt>
<trkpt lat="22.2409354" lon="113.8886882">
<ele>384.812</ele>
<time>2020-10-17T03:43:11.375Z</time>
</trkpt>
<trkpt lat="22.2408443" lon="113.8886966">
<ele>385.840</ele>
<time>2020-10-17T03:43:17.376Z</time>
</trkpt>
<trkpt lat="22.2407508" lon="113.8887021">
<ele>392.686</ele>
<time>2020-10-17T03:43:23.999Z</time>
</trkpt>
<trkpt lat="22.2407508" lon="113.8887021">
<ele>394.246</ele>
<time>2020-10-17T03:43:32.999Z</time>
</trkpt>
<trkpt lat="22.2407508" lon="113.8887021">
<ele>394.131</ele>
<time>2020-10-17T03:43:33.099Z</time>
</trkpt>
<trkpt lat="22.2406729" lon="113.8887548">
<ele>393.628</ele>
<time>2020-10-17T03:44:12.999Z</time>
</trkpt>
<trkpt lat="22.2406729" lon="113.8887548">
<ele>393.695</ele>
<time>2020-10-17T03:44:15.999Z</time>
</trkpt>
<trkpt lat="22.2406729" lon="113.8887548">
<ele>393.690</ele>
<time>2020-10-17T03:44:17.363Z</time>
</trkpt>
<trkpt lat="22.2406018" lon="113.8888263">
<ele>393.328</ele>
<time>2020-10-17T03:44:56.360Z</time>
</trkpt>
<trkpt lat="22.2406775" lon="113.8887663">
<ele>393.226</ele>
<time>2020-10-17T03:45:26.999Z</time>
</trkpt>
<trkpt lat="22.2406775" lon="113.8887663">
<ele>393.170</ele>
<time>2020-10-17T03:45:34.999Z</time>
</trkpt>
<trkpt lat="22.2406775" lon="113.8887663">
<ele>393.062</ele>
<time>2020-10-17T03:49:17.311Z</time>
</trkpt>
<trkpt lat="22.2406010" lon="113.8888177">
<ele>392.763</ele>
<time>2020-10-17T03:49:27.999Z</time>
</trkpt>
<trkpt lat="22.2406010" lon="113.8888177">
<ele>392.700</ele>
<time>2020-10-17T03:49:30.999Z</time>
</trkpt>
<trkpt lat="22.2406010" lon="113.8888177">
<ele>392.635</ele>
<time>2020-10-17T03:49:53.999Z</time>
</trkpt>
<trkpt lat="22.2406010" lon="113.8888177">
<ele>392.492</ele>
<time>2020-10-17T03:50:20.437Z</time>
</trkpt>
<trkpt lat="22.2406831" lon="113.8888581">
<ele>392.208</ele>
<time>2020-10-17T03:50:52.761Z</time>
</trkpt>
<trkpt lat="22.2407566" lon="113.8889140">
<ele>393.146</ele>
<time>2020-10-17T03:51:14.275Z</time>
</trkpt>
<trkpt lat="22.2408461" lon="113.8889469">
<ele>395.804</ele>
<time>2020-10-17T03:51:35.999Z</time>
</trkpt>
<trkpt lat="22.2408461" lon="113.8889469">
<ele>398.657</ele>
<time>2020-10-17T03:52:10.999Z</time>
</trkpt>
<trkpt lat="22.2408461" lon="113.8889469">
<ele>399.892</ele>
<time>2020-10-17T03:52:30.313Z</time>
</trkpt>
<trkpt lat="22.2409336" lon="113.8889996">
<ele>399.574</ele>
<time>2020-10-17T03:52:50.010Z</time>
</trkpt>
<trkpt lat="22.2410162" lon="113.8890481">
<ele>399.781</ele>
<time>2020-10-17T03:53:07.188Z</time>
</trkpt>
<trkpt lat="22.2410604" lon="113.8891331">
<ele>401.936</ele>
<time>2020-10-17T03:53:26.999Z</time>
</trkpt>
<trkpt lat="22.2410604" lon="113.8891331">
<ele>404.528</ele>
<time>2020-10-17T03:53:41.999Z</time>
</trkpt>
<trkpt lat="22.2410604" lon="113.8891331">
<ele>405.644</ele>
<time>2020-10-17T03:53:57.999Z</time>
</trkpt>
<trkpt lat="22.2410604" lon="113.8891331">
<ele>405.338</ele>
<time>2020-10-17T03:53:58.099Z</time>
</trkpt>
<trkpt lat="22.2412045" lon="113.8892588">
<ele>404.726</ele>
<time>2020-10-17T03:54:20.033Z</time>
</trkpt>
<trkpt lat="22.2411753" lon="113.8893529">
<ele>405.528</ele>
<time>2020-10-17T03:54:28.768Z</time>
</trkpt>
<trkpt lat="22.2412129" lon="113.8894483">
<ele>408.299</ele>
<time>2020-10-17T03:54:38.826Z</time>
</trkpt>
<trkpt lat="22.2412828" lon="113.8895191">
<ele>411.776</ele>
<time>2020-10-17T03:54:49.156Z</time>
</trkpt>
<trkpt lat="22.2413506" lon="113.8895918">
<ele>414.833</ele>
<time>2020-10-17T03:54:58.999Z</time>
</trkpt>
<trkpt lat="22.2413506" lon="113.8895918">
<ele>417.144</ele>
<time>2020-10-17T03:55:08.999Z</time>
</trkpt>
<trkpt lat="22.2413506" lon="113.8895918">
<ele>418.139</ele>
<time>2020-10-17T03:58:25.999Z</time>
</trkpt>
<trkpt lat="22.2413506" lon="113.8895918">
<ele>417.844</ele>
<time>2020-10-17T03:58:42.999Z</time>
</trkpt>
<trkpt lat="22.2413506" lon="113.8895918">
<ele>417.228</ele>
<time>2020-10-17T03:59:17.999Z</time>
</trkpt>
<trkpt lat="22.2413506" lon="113.8895918">
<ele>417.028</ele>
<time>2020-10-17T04:02:21.999Z</time>
</trkpt>
<trkpt lat="22.2413506" lon="113.8895918">
<ele>417.064</ele>
<time>2020-10-17T04:33:38.000Z</time>
</trkpt>
<trkpt lat="22.2413506" lon="113.8895918">
<ele>416.969</ele>
<time>2020-10-17T04:38:45.991Z</time>
</trkpt>
<trkpt lat="22.2413506" lon="113.8895918">
<ele>416.606</ele>
<time>2020-10-17T04:39:07.999Z</time>
</trkpt>
<trkpt lat="22.2413506" lon="113.8895918">
<ele>416.509</ele>
<time>2020-10-17T04:54:11.492Z</time>
</trkpt>
<trkpt lat="22.2413186" lon="113.8894966">
<ele>416.230</ele>
<time>2020-10-17T04:54:37.288Z</time>
</trkpt>
<trkpt lat="22.2412590" lon="113.8894215">
<ele>416.900</ele>
<time>2020-10-17T04:54:46.335Z</time>
</trkpt>
<trkpt lat="22.2412156" lon="113.8893360">
<ele>418.664</ele>
<time>2020-10-17T04:54:55.277Z</time>
</trkpt>
<trkpt lat="22.2412146" lon="113.8892289">
<ele>419.944</ele>
<time>2020-10-17T04:55:04.931Z</time>
</trkpt>
<trkpt lat="22.2411701" lon="113.8891418">
<ele>419.024</ele>
<time>2020-10-17T04:55:15.032Z</time>
</trkpt>
<trkpt lat="22.2410790" lon="113.8891013">
<ele>417.762</ele>
<time>2020-10-17T04:55:29.510Z</time>
</trkpt>
<trkpt lat="22.2410060" lon="113.8890424">
<ele>416.419</ele>
<time>2020-10-17T04:55:44.193Z</time>
</trkpt>
<trkpt lat="22.2409419" lon="113.8889681">
<ele>414.651</ele>
<time>2020-10-17T04:55:57.691Z</time>
</trkpt>
<trkpt lat="22.2408637" lon="113.8889078">
<ele>412.394</ele>
<time>2020-10-17T04:56:09.461Z</time>
</trkpt>
<trkpt lat="22.2408441" lon="113.8888098">
<ele>410.097</ele>
<time>2020-10-17T04:56:22.534Z</time>
</trkpt>
<trkpt lat="22.2407903" lon="113.8887203">
<ele>407.928</ele>
<time>2020-10-17T04:56:37.095Z</time>
</trkpt>
<trkpt lat="22.2407035" lon="113.8887578">
<ele>405.863</ele>
<time>2020-10-17T04:56:49.883Z</time>
</trkpt>
<trkpt lat="22.2406448" lon="113.8888320">
<ele>404.198</ele>
<time>2020-10-17T04:56:59.998Z</time>
</trkpt>
<trkpt lat="22.2406448" lon="113.8888320">
<ele>403.258</ele>
<time>2020-10-17T04:57:14.998Z</time>
</trkpt>
<trkpt lat="22.2406448" lon="113.8888320">
<ele>402.916</ele>
<time>2020-10-17T05:02:30.749Z</time>
</trkpt>
<trkpt lat="22.2406930" lon="113.8887416">
<ele>402.775</ele>
<time>2020-10-17T05:03:00.793Z</time>
</trkpt>
<trkpt lat="22.2406316" lon="113.8886686">
<ele>402.225</ele>
<time>2020-10-17T05:03:11.892Z</time>
</trkpt>
<trkpt lat="22.2405518" lon="113.8886204">
<ele>400.777</ele>
<time>2020-10-17T05:03:22.276Z</time>
</trkpt>
<trkpt lat="22.2404730" lon="113.8885654">
<ele>399.238</ele>
<time>2020-10-17T05:03:33.118Z</time>
</trkpt>
<trkpt lat="22.2403949" lon="113.8885152">
<ele>398.773</ele>
<time>2020-10-17T05:03:42.999Z</time>
</trkpt>
<trkpt lat="22.2403949" lon="113.8885152">
<ele>399.436</ele>
<time>2020-10-17T05:03:50.999Z</time>
</trkpt>
<trkpt lat="22.2403949" lon="113.8885152">
<ele>400.117</ele>
<time>2020-10-17T05:03:56.169Z</time>
</trkpt>
<trkpt lat="22.2403103" lon="113.8884364">
<ele>399.392</ele>
<time>2020-10-17T05:04:11.590Z</time>
</trkpt>
<trkpt lat="22.2402509" lon="113.8883604">
<ele>399.951</ele>
<time>2020-10-17T05:04:17.999Z</time>
</trkpt>
<trkpt lat="22.2402509" lon="113.8883604">
<ele>402.281</ele>
<time>2020-10-17T05:04:20.999Z</time>
</trkpt>
<trkpt lat="22.2402509" lon="113.8883604">
<ele>404.267</ele>
<time>2020-10-17T05:04:29.440Z</time>
</trkpt>
<trkpt lat="22.2402078" lon="113.8882591">
<ele>402.819</ele>
<time>2020-10-17T05:05:48.938Z</time>
</trkpt>
<trkpt lat="22.2401322" lon="113.8881838">
<ele>402.383</ele>
<time>2020-10-17T05:05:57.175Z</time>
</trkpt>
<trkpt lat="22.2400859" lon="113.8880961">
<ele>403.259</ele>
<time>2020-10-17T05:06:03.110Z</time>
</trkpt>
<trkpt lat="22.2400328" lon="113.8880137">
<ele>404.356</ele>
<time>2020-10-17T05:06:08.550Z</time>
</trkpt>
<trkpt lat="22.2400017" lon="113.8879090">
<ele>404.509</ele>
<time>2020-10-17T05:06:14.314Z</time>
</trkpt>
<trkpt lat="22.2399816" lon="113.8878053">
<ele>403.664</ele>
<time>2020-10-17T05:06:20.028Z</time>
</trkpt>
<trkpt lat="22.2399169" lon="113.8877342">
<ele>401.300</ele>
<time>2020-10-17T05:06:25.588Z</time>
</trkpt>
<trkpt lat="22.2398518" lon="113.8876661">
<ele>399.887</ele>
<time>2020-10-17T05:06:31.325Z</time>
</trkpt>
<trkpt lat="22.2397625" lon="113.8876454">
<ele>398.988</ele>
<time>2020-10-17T05:06:37.200Z</time>
</trkpt>
<trkpt lat="22.2396622" lon="113.8876508">
<ele>397.693</ele>
<time>2020-10-17T05:06:44.511Z</time>
</trkpt>
<trkpt lat="22.2395803" lon="113.8875991">
<ele>396.491</ele>
<time>2020-10-17T05:06:52.159Z</time>
</trkpt>
<trkpt lat="22.2394845" lon="113.8875749">
<ele>395.567</ele>
<time>2020-10-17T05:07:00.673Z</time>
</trkpt>
<trkpt lat="22.2393781" lon="113.8875897">
<ele>394.828</ele>
<time>2020-10-17T05:07:08.959Z</time>
</trkpt>
<trkpt lat="22.2392782" lon="113.8875642">
<ele>394.105</ele>
<time>2020-10-17T05:07:16.722Z</time>
</trkpt>
<trkpt lat="22.2391759" lon="113.8875420">
<ele>392.830</ele>
<time>2020-10-17T05:07:24.998Z</time>
</trkpt>
<trkpt lat="22.2391759" lon="113.8875420">
<ele>391.966</ele>
<time>2020-10-17T05:07:30.998Z</time>
</trkpt>
<trkpt lat="22.2391759" lon="113.8875420">
<ele>391.879</ele>
<time>2020-10-17T05:07:32.410Z</time>
</trkpt>
<trkpt lat="22.2390657" lon="113.8875211">
<ele>391.781</ele>
<time>2020-10-17T05:07:44.998Z</time>
</trkpt>
<trkpt lat="22.2390657" lon="113.8875211">
<ele>391.628</ele>
<time>2020-10-17T05:07:48.998Z</time>
</trkpt>
<trkpt lat="22.2390657" lon="113.8875211">
<ele>391.430</ele>
<time>2020-10-17T05:07:49.098Z</time>
</trkpt>
<trkpt lat="22.2390657" lon="113.8875211">
<ele>391.167</ele>
<time>2020-10-17T05:08:09.998Z</time>
</trkpt>
<trkpt lat="22.2390657" lon="113.8875211">
<ele>391.095</ele>
<time>2020-10-17T05:08:10.098Z</time>
</trkpt>
<trkpt lat="22.2390657" lon="113.8875211">
<ele>390.805</ele>
<time>2020-10-17T05:08:13.998Z</time>
</trkpt>
<trkpt lat="22.2390657" lon="113.8875211">
<ele>390.686</ele>
<time>2020-10-17T05:08:14.098Z</time>
</trkpt>
<trkpt lat="22.2389768" lon="113.8874435">
<ele>390.565</ele>
<time>2020-10-17T05:08:23.997Z</time>
</trkpt>
<trkpt lat="22.2389768" lon="113.8874435">
<ele>390.408</ele>
<time>2020-10-17T05:08:29.997Z</time>
</trkpt>
<trkpt lat="22.2389768" lon="113.8874435">
<ele>390.219</ele>
<time>2020-10-17T05:08:30.097Z</time>
</trkpt>
<trkpt lat="22.2388383" lon="113.8873825">
<ele>390.048</ele>
<time>2020-10-17T05:08:48.617Z</time>
</trkpt>
<trkpt lat="22.2387624" lon="113.8873259">
<ele>387.261</ele>
<time>2020-10-17T05:08:59.458Z</time>
</trkpt>
<trkpt lat="22.2386749" lon="113.8872731">
<ele>379.962</ele>
<time>2020-10-17T05:09:10.296Z</time>
</trkpt>
<trkpt lat="22.2385820" lon="113.8872472">
<ele>371.609</ele>
<time>2020-10-17T05:09:21.177Z</time>
</trkpt>
<trkpt lat="22.2385760" lon="113.8871479">
<ele>365.975</ele>
<time>2020-10-17T05:09:31.796Z</time>
</trkpt>
<trkpt lat="22.2384943" lon="113.8871058">
<ele>362.625</ele>
<time>2020-10-17T05:09:43.218Z</time>
</trkpt>
<trkpt lat="22.2384128" lon="113.8870473">
<ele>360.311</ele>
<time>2020-10-17T05:09:52.889Z</time>
</trkpt>
<trkpt lat="22.2383220" lon="113.8870065">
<ele>357.789</ele>
<time>2020-10-17T05:10:02.172Z</time>
</trkpt>
<trkpt lat="22.2382434" lon="113.8869586">
<ele>357.110</ele>
<time>2020-10-17T05:10:11.784Z</time>
</trkpt>
<trkpt lat="22.2381849" lon="113.8868800">
<ele>356.337</ele>
<time>2020-10-17T05:10:25.121Z</time>
</trkpt>
<trkpt lat="22.2381044" lon="113.8868321">
<ele>355.176</ele>
<time>2020-10-17T05:10:39.876Z</time>
</trkpt>
<trkpt lat="22.2380045" lon="113.8868301">
<ele>353.860</ele>
<time>2020-10-17T05:10:52.905Z</time>
</trkpt>
<trkpt lat="22.2379204" lon="113.8867749">
<ele>352.632</ele>
<time>2020-10-17T05:11:03.199Z</time>
</trkpt>
<trkpt lat="22.2378360" lon="113.8867348">
<ele>351.812</ele>
<time>2020-10-17T05:11:13.153Z</time>
</trkpt>
<trkpt lat="22.2377767" lon="113.8866597">
<ele>351.497</ele>
<time>2020-10-17T05:11:22.842Z</time>
</trkpt>
<trkpt lat="22.2377065" lon="113.8865851">
<ele>351.494</ele>
<time>2020-10-17T05:11:32.753Z</time>
</trkpt>
<trkpt lat="22.2376353" lon="113.8865172">
<ele>351.576</ele>
<time>2020-10-17T05:11:42.552Z</time>
</trkpt>
<trkpt lat="22.2375417" lon="113.8864896">
<ele>351.639</ele>
<time>2020-10-17T05:11:52.677Z</time>
</trkpt>
<trkpt lat="22.2374824" lon="113.8864117">
<ele>351.677</ele>
<time>2020-10-17T05:12:03.552Z</time>
</trkpt>
<trkpt lat="22.2374380" lon="113.8863272">
<ele>351.699</ele>
<time>2020-10-17T05:12:22.073Z</time>
</trkpt>
<trkpt lat="22.2373706" lon="113.8862626">
<ele>351.690</ele>
<time>2020-10-17T05:12:43.648Z</time>
</trkpt>
<trkpt lat="22.2372866" lon="113.8862218">
<ele>351.612</ele>
<time>2020-10-17T05:13:02.577Z</time>
</trkpt>
<trkpt lat="22.2372278" lon="113.8861477">
<ele>351.365</ele>
<time>2020-10-17T05:13:16.964Z</time>
</trkpt>
<trkpt lat="22.2371370" lon="113.8861024">
<ele>350.944</ele>
<time>2020-10-17T05:13:29.835Z</time>
</trkpt>
<trkpt lat="22.2370455" lon="113.8860923">
<ele>350.350</ele>
<time>2020-10-17T05:13:42.998Z</time>
</trkpt>
<trkpt lat="22.2370455" lon="113.8860923">
<ele>349.635</ele>
<time>2020-10-17T05:13:51.998Z</time>
</trkpt>
<trkpt lat="22.2370455" lon="113.8860923">
<ele>349.109</ele>
<time>2020-10-17T05:13:55.468Z</time>
</trkpt>
<trkpt lat="22.2369510" lon="113.8860419">
<ele>348.987</ele>
<time>2020-10-17T05:14:10.791Z</time>
</trkpt>
<trkpt lat="22.2368628" lon="113.8860162">
<ele>348.348</ele>
<time>2020-10-17T05:14:18.432Z</time>
</trkpt>
<trkpt lat="22.2368149" lon="113.8859297">
<ele>346.336</ele>
<time>2020-10-17T05:14:27.059Z</time>
</trkpt>
<trkpt lat="22.2367257" lon="113.8858937">
<ele>343.812</ele>
<time>2020-10-17T05:14:37.998Z</time>
</trkpt>
<trkpt lat="22.2367257" lon="113.8858937">
<ele>342.132</ele>
<time>2020-10-17T05:14:46.998Z</time>
</trkpt>
<trkpt lat="22.2367257" lon="113.8858937">
<ele>341.491</ele>
<time>2020-10-17T05:14:47.098Z</time>
</trkpt>
<trkpt lat="22.2366888" lon="113.8857978">
<ele>341.457</ele>
<time>2020-10-17T05:14:55.998Z</time>
</trkpt>
<trkpt lat="22.2366888" lon="113.8857978">
<ele>341.504</ele>
<time>2020-10-17T05:14:59.998Z</time>
</trkpt>
<trkpt lat="22.2366888" lon="113.8857978">
<ele>341.376</ele>
<time>2020-10-17T05:15:00.098Z</time>
</trkpt>
<trkpt lat="22.2365798" lon="113.8857270">
<ele>341.173</ele>
<time>2020-10-17T05:15:17.998Z</time>
</trkpt>
<trkpt lat="22.2365798" lon="113.8857270">
<ele>341.018</ele>
<time>2020-10-17T05:15:28.998Z</time>
</trkpt>
<trkpt lat="22.2365798" lon="113.8857270">
<ele>340.865</ele>
<time>2020-10-17T05:15:29.098Z</time>
</trkpt>
<trkpt lat="22.2365203" lon="113.8856319">
<ele>340.715</ele>
<time>2020-10-17T05:15:46.408Z</time>
</trkpt>
<trkpt lat="22.2364470" lon="113.8855659">
<ele>340.625</ele>
<time>2020-10-17T05:15:57.998Z</time>
</trkpt>
<trkpt lat="22.2364470" lon="113.8855659">
<ele>340.545</ele>
<time>2020-10-17T05:16:10.998Z</time>
</trkpt>
<trkpt lat="22.2364470" lon="113.8855659">
<ele>340.410</ele>
<time>2020-10-17T05:16:33.117Z</time>
</trkpt>
<trkpt lat="22.2363694" lon="113.8855108">
<ele>340.277</ele>
<time>2020-10-17T05:16:49.969Z</time>
</trkpt>
<trkpt lat="22.2362898" lon="113.8854509">
<ele>340.598</ele>
<time>2020-10-17T05:17:02.386Z</time>
</trkpt>
<trkpt lat="22.2361959" lon="113.8854329">
<ele>341.967</ele>
<time>2020-10-17T05:17:15.999Z</time>
</trkpt>
<trkpt lat="22.2361959" lon="113.8854329">
<ele>343.994</ele>
<time>2020-10-17T05:17:56.999Z</time>
</trkpt>
<trkpt lat="22.2361959" lon="113.8854329">
<ele>345.211</ele>
<time>2020-10-17T05:17:57.099Z</time>
</trkpt>
<trkpt lat="22.2360483" lon="113.8853934">
<ele>344.997</ele>
<time>2020-10-17T05:18:25.999Z</time>
</trkpt>
<trkpt lat="22.2360483" lon="113.8853934">
<ele>344.329</ele>
<time>2020-10-17T05:18:55.999Z</time>
</trkpt>
<trkpt lat="22.2360483" lon="113.8853934">
<ele>344.144</ele>
<time>2020-10-17T05:18:56.099Z</time>
</trkpt>
<trkpt lat="22.2359162" lon="113.8853932">
<ele>344.334</ele>
<time>2020-10-17T05:19:09.999Z</time>
</trkpt>
<trkpt lat="22.2359162" lon="113.8853932">
<ele>344.438</ele>
<time>2020-10-17T05:19:17.999Z</time>
</trkpt>
<trkpt lat="22.2359162" lon="113.8853932">
<ele>344.307</ele>
<time>2020-10-17T05:19:31.613Z</time>
</trkpt>
<trkpt lat="22.2358149" lon="113.8853752">
<ele>344.021</ele>
<time>2020-10-17T05:19:46.999Z</time>
</trkpt>
<trkpt lat="22.2358149" lon="113.8853752">
<ele>344.006</ele>
<time>2020-10-17T05:19:52.999Z</time>
</trkpt>
<trkpt lat="22.2358149" lon="113.8853752">
<ele>343.963</ele>
<time>2020-10-17T05:19:53.099Z</time>
</trkpt>
<trkpt lat="22.2356563" lon="113.8853712">
<ele>343.828</ele>
<time>2020-10-17T05:20:58.999Z</time>
</trkpt>
<trkpt lat="22.2356563" lon="113.8853712">
<ele>343.680</ele>
<time>2020-10-17T05:21:01.999Z</time>
</trkpt>
<trkpt lat="22.2356563" lon="113.8853712">
<ele>343.578</ele>
<time>2020-10-17T05:21:22.925Z</time>
</trkpt>
<trkpt lat="22.2355778" lon="113.8853018">
<ele>343.496</ele>
<time>2020-10-17T05:21:44.899Z</time>
</trkpt>
<trkpt lat="22.2355593" lon="113.8852066">
<ele>348.643</ele>
<time>2020-10-17T05:21:56.999Z</time>
</trkpt>
<trkpt lat="22.2355593" lon="113.8852066">
<ele>362.177</ele>
<time>2020-10-17T05:22:13.998Z</time>
</trkpt>
<trkpt lat="22.2355593" lon="113.8852066">
<ele>373.423</ele>
<time>2020-10-17T05:22:31.742Z</time>
</trkpt>
<trkpt lat="22.2354089" lon="113.8850647">
<ele>373.080</ele>
<time>2020-10-17T05:23:14.998Z</time>
</trkpt>
<trkpt lat="22.2354089" lon="113.8850647">
<ele>368.456</ele>
<time>2020-10-17T05:23:18.998Z</time>
</trkpt>
<trkpt lat="22.2354089" lon="113.8850647">
<ele>367.867</ele>
<time>2020-10-17T05:34:34.581Z</time>
</trkpt>
<trkpt lat="22.2354089" lon="113.8850647">
<ele>369.904</ele>
<time>2020-10-17T05:34:47.999Z</time>
</trkpt>
<trkpt lat="22.2354089" lon="113.8850647">
<ele>369.150</ele>
<time>2020-10-17T05:34:48.099Z</time>
</trkpt>
<trkpt lat="22.2354089" lon="113.8850647">
<ele>369.047</ele>
<time>2020-10-17T05:34:50.999Z</time>
</trkpt>
<trkpt lat="22.2354089" lon="113.8850647">
<ele>369.220</ele>
<time>2020-10-17T05:35:18.999Z</time>
</trkpt>
<trkpt lat="22.2354089" lon="113.8850647">
<ele>369.069</ele>
<time>2020-10-17T05:35:21.853Z</time>
</trkpt>
<trkpt lat="22.2354215" lon="113.8849685">
<ele>368.706</ele>
<time>2020-10-17T05:35:43.395Z</time>
</trkpt>
<trkpt lat="22.2354086" lon="113.8848658">
<ele>374.516</ele>
<time>2020-10-17T05:35:55.805Z</time>
</trkpt>
<trkpt lat="22.2353438" lon="113.8847968">
<ele>389.703</ele>
<time>2020-10-17T05:36:07.998Z</time>
</trkpt>
<trkpt lat="22.2353438" lon="113.8847968">
<ele>405.364</ele>
<time>2020-10-17T05:36:24.998Z</time>
</trkpt>
<trkpt lat="22.2353438" lon="113.8847968">
<ele>412.014</ele>
<time>2020-10-17T05:36:25.098Z</time>
</trkpt>
<trkpt lat="22.2353438" lon="113.8847968">
<ele>407.436</ele>
<time>2020-10-17T05:36:44.998Z</time>
</trkpt>
<trkpt lat="22.2353438" lon="113.8847968">
<ele>405.362</ele>
<time>2020-10-17T05:36:45.098Z</time>
</trkpt>
<trkpt lat="22.2352471" lon="113.8847341">
<ele>405.829</ele>
<time>2020-10-17T05:36:55.998Z</time>
</trkpt>
<trkpt lat="22.2352471" lon="113.8847341">
<ele>407.473</ele>
<time>2020-10-17T05:37:03.998Z</time>
</trkpt>
<trkpt lat="22.2352471" lon="113.8847341">
<ele>408.166</ele>
<time>2020-10-17T05:37:08.313Z</time>
</trkpt>
<trkpt lat="22.2351991" lon="113.8846482">
<ele>407.739</ele>
<time>2020-10-17T05:37:30.757Z</time>
</trkpt>
<trkpt lat="22.2351558" lon="113.8845523">
<ele>410.012</ele>
<time>2020-10-17T05:37:42.998Z</time>
</trkpt>
<trkpt lat="22.2351558" lon="113.8845523">
<ele>417.006</ele>
<time>2020-10-17T05:37:47.998Z</time>
</trkpt>
<trkpt lat="22.2351558" lon="113.8845523">
<ele>422.934</ele>
<time>2020-10-17T05:38:06.748Z</time>
</trkpt>
<trkpt lat="22.2350622" lon="113.8845819">
<ele>419.326</ele>
<time>2020-10-17T05:38:24.644Z</time>
</trkpt>
<trkpt lat="22.2349842" lon="113.8845135">
<ele>418.346</ele>
<time>2020-10-17T05:38:30.998Z</time>
</trkpt>
<trkpt lat="22.2349842" lon="113.8845135">
<ele>421.283</ele>
<time>2020-10-17T05:38:39.998Z</time>
</trkpt>
<trkpt lat="22.2349842" lon="113.8845135">
<ele>424.362</ele>
<time>2020-10-17T05:38:40.012Z</time>
</trkpt>
<trkpt lat="22.2348774" lon="113.8844581">
<ele>424.216</ele>
<time>2020-10-17T05:38:53.059Z</time>
</trkpt>
<trkpt lat="22.2348023" lon="113.8844019">
<ele>422.610</ele>
<time>2020-10-17T05:38:58.997Z</time>
</trkpt>
<trkpt lat="22.2348023" lon="113.8844019">
<ele>421.919</ele>
<time>2020-10-17T05:39:07.997Z</time>
</trkpt>
<trkpt lat="22.2348023" lon="113.8844019">
<ele>422.041</ele>
<time>2020-10-17T05:39:08.097Z</time>
</trkpt>
<trkpt lat="22.2346665" lon="113.8843659">
<ele>422.098</ele>
<time>2020-10-17T05:39:27.000Z</time>
</trkpt>
<trkpt lat="22.2346665" lon="113.8843659">
<ele>421.856</ele>
<time>2020-10-17T05:39:30.000Z</time>
</trkpt>
<trkpt lat="22.2346665" lon="113.8843659">
<ele>421.553</ele>
<time>2020-10-17T05:39:30.100Z</time>
</trkpt>
<trkpt lat="22.2346070" lon="113.8842844">
<ele>421.378</ele>
<time>2020-10-17T05:39:55.558Z</time>
</trkpt>
<trkpt lat="22.2345339" lon="113.8842120">
<ele>421.069</ele>
<time>2020-10-17T05:40:04.119Z</time>
</trkpt>
<trkpt lat="22.2344553" lon="113.8841504">
<ele>420.063</ele>
<time>2020-10-17T05:40:10.620Z</time>
</trkpt>
<trkpt lat="22.2343980" lon="113.8840731">
<ele>418.290</ele>
<time>2020-10-17T05:40:17.033Z</time>
</trkpt>
<trkpt lat="22.2343412" lon="113.8839960">
<ele>415.400</ele>
<time>2020-10-17T05:40:25.643Z</time>
</trkpt>
<trkpt lat="22.2342813" lon="113.8839230">
<ele>414.735</ele>
<time>2020-10-17T05:40:35.851Z</time>
</trkpt>
<trkpt lat="22.2342301" lon="113.8838390">
<ele>414.844</ele>
<time>2020-10-17T05:40:49.603Z</time>
</trkpt>
<trkpt lat="22.2341702" lon="113.8837638">
<ele>415.523</ele>
<time>2020-10-17T05:41:02.999Z</time>
</trkpt>
<trkpt lat="22.2341702" lon="113.8837638">
<ele>416.913</ele>
<time>2020-10-17T05:41:09.999Z</time>
</trkpt>
<trkpt lat="22.2341702" lon="113.8837638">
<ele>417.923</ele>
<time>2020-10-17T05:41:30.016Z</time>
</trkpt>
<trkpt lat="22.2341254" lon="113.8836578">
<ele>416.978</ele>
<time>2020-10-17T05:41:51.024Z</time>
</trkpt>
<trkpt lat="22.2340809" lon="113.8835671">
<ele>416.475</ele>
<time>2020-10-17T05:42:01.863Z</time>
</trkpt>
<trkpt lat="22.2340439" lon="113.8834779">
<ele>416.173</ele>
<time>2020-10-17T05:42:10.996Z</time>
</trkpt>
<trkpt lat="22.2339797" lon="113.8834078">
<ele>415.708</ele>
<time>2020-10-17T05:42:19.462Z</time>
</trkpt>
<trkpt lat="22.2339110" lon="113.8833406">
<ele>414.922</ele>
<time>2020-10-17T05:42:27.910Z</time>
</trkpt>
<trkpt lat="22.2338695" lon="113.8832490">
<ele>413.880</ele>
<time>2020-10-17T05:42:36.998Z</time>
</trkpt>
<trkpt lat="22.2338695" lon="113.8832490">
<ele>412.845</ele>
<time>2020-10-17T05:42:43.998Z</time>
</trkpt>
<trkpt lat="22.2338695" lon="113.8832490">
<ele>412.216</ele>
<time>2020-10-17T05:42:44.098Z</time>
</trkpt>
<trkpt lat="22.2338316" lon="113.8831517">
<ele>412.091</ele>
<time>2020-10-17T05:42:56.560Z</time>
</trkpt>
<trkpt lat="22.2337637" lon="113.8830795">
<ele>412.036</ele>
<time>2020-10-17T05:43:04.998Z</time>
</trkpt>
<trkpt lat="22.2337637" lon="113.8830795">
<ele>411.719</ele>
<time>2020-10-17T05:43:08.998Z</time>
</trkpt>
<trkpt lat="22.2337637" lon="113.8830795">
<ele>411.340</ele>
<time>2020-10-17T05:43:09.098Z</time>
</trkpt>
<trkpt lat="22.2336784" lon="113.8830149">
<ele>411.169</ele>
<time>2020-10-17T05:43:31.515Z</time>
</trkpt>
<trkpt lat="22.2336122" lon="113.8829488">
<ele>411.161</ele>
<time>2020-10-17T05:43:43.958Z</time>
</trkpt>
<trkpt lat="22.2335725" lon="113.8828563">
<ele>411.325</ele>
<time>2020-10-17T05:43:55.276Z</time>
</trkpt>
<trkpt lat="22.2335063" lon="113.8827795">
<ele>411.802</ele>
<time>2020-10-17T05:44:05.642Z</time>
</trkpt>
<trkpt lat="22.2334730" lon="113.8826868">
<ele>412.735</ele>
<time>2020-10-17T05:44:16.224Z</time>
</trkpt>
<trkpt lat="22.2334069" lon="113.8826187">
<ele>414.113</ele>
<time>2020-10-17T05:44:28.998Z</time>
</trkpt>
<trkpt lat="22.2334069" lon="113.8826187">
<ele>415.507</ele>
<time>2020-10-17T05:44:35.998Z</time>
</trkpt>
<trkpt lat="22.2334069" lon="113.8826187">
<ele>416.171</ele>
<time>2020-10-17T05:44:36.098Z</time>
</trkpt>
<trkpt lat="22.2333068" lon="113.8826062">
<ele>415.384</ele>
<time>2020-10-17T05:44:48.998Z</time>
</trkpt>
<trkpt lat="22.2333068" lon="113.8826062">
<ele>415.038</ele>
<time>2020-10-17T05:44:48.998Z</time>
</trkpt>
<trkpt lat="22.2333068" lon="113.8826062">
<ele>414.917</ele>
<time>2020-10-17T05:44:50.041Z</time>
</trkpt>
<trkpt lat="22.2332367" lon="113.8825377">
<ele>414.721</ele>
<time>2020-10-17T05:45:01.998Z</time>
</trkpt>
<trkpt lat="22.2332367" lon="113.8825377">
<ele>414.600</ele>
<time>2020-10-17T05:45:09.997Z</time>
</trkpt>
<trkpt lat="22.2332367" lon="113.8825377">
<ele>414.501</ele>
<time>2020-10-17T05:45:11.348Z</time>
</trkpt>
<trkpt lat="22.2331669" lon="113.8824513">
<ele>414.212</ele>
<time>2020-10-17T05:45:34.714Z</time>
</trkpt>
<trkpt lat="22.2330929" lon="113.8823879">
<ele>415.300</ele>
<time>2020-10-17T05:45:45.325Z</time>
</trkpt>
<trkpt lat="22.2330029" lon="113.8823538">
<ele>418.343</ele>
<time>2020-10-17T05:45:54.146Z</time>
</trkpt>
<trkpt lat="22.2329116" lon="113.8823137">
<ele>421.477</ele>
<time>2020-10-17T05:46:02.378Z</time>
</trkpt>
<trkpt lat="22.2328214" lon="113.8823303">
<ele>422.857</ele>
<time>2020-10-17T05:46:09.997Z</time>
</trkpt>
<trkpt lat="22.2328214" lon="113.8823303">
<ele>422.850</ele>
<time>2020-10-17T05:46:14.997Z</time>
</trkpt>
<trkpt lat="22.2328214" lon="113.8823303">
<ele>422.436</ele>
<time>2020-10-17T05:46:17.621Z</time>
</trkpt>
<trkpt lat="22.2327410" lon="113.8823758">
<ele>422.240</ele>
<time>2020-10-17T05:46:30.391Z</time>
</trkpt>
<trkpt lat="22.2326519" lon="113.8823551">
<ele>422.264</ele>
<time>2020-10-17T05:46:38.568Z</time>
</trkpt>
<trkpt lat="22.2325553" lon="113.8823399">
<ele>422.194</ele>
<time>2020-10-17T05:46:47.937Z</time>
</trkpt>
<trkpt lat="22.2324635" lon="113.8823017">
<ele>422.124</ele>
<time>2020-10-17T05:46:58.999Z</time>
</trkpt>
<trkpt lat="22.2324635" lon="113.8823017">
<ele>422.158</ele>
<time>2020-10-17T05:47:03.999Z</time>
</trkpt>
<trkpt lat="22.2324635" lon="113.8823017">
<ele>422.154</ele>
<time>2020-10-17T05:47:31.999Z</time>
</trkpt>
<trkpt lat="22.2324635" lon="113.8823017">
<ele>421.981</ele>
<time>2020-10-17T05:47:32.099Z</time>
</trkpt>
<trkpt lat="22.2323135" lon="113.8823120">
<ele>421.766</ele>
<time>2020-10-17T05:49:11.778Z</time>
</trkpt>
<trkpt lat="22.2322546" lon="113.8822350">
<ele>422.134</ele>
<time>2020-10-17T05:49:21.142Z</time>
</trkpt>
<trkpt lat="22.2321774" lon="113.8821762">
<ele>423.957</ele>
<time>2020-10-17T05:49:32.884Z</time>
</trkpt>
<trkpt lat="22.2320876" lon="113.8821437">
<ele>427.192</ele>
<time>2020-10-17T05:49:44.718Z</time>
</trkpt>
<trkpt lat="22.2320035" lon="113.8821012">
<ele>430.576</ele>
<time>2020-10-17T05:49:55.999Z</time>
</trkpt>
<trkpt lat="22.2320035" lon="113.8821012">
<ele>432.874</ele>
<time>2020-10-17T05:49:58.999Z</time>
</trkpt>
<trkpt lat="22.2320035" lon="113.8821012">
<ele>433.655</ele>
<time>2020-10-17T05:49:59.099Z</time>
</trkpt>
<trkpt lat="22.2319401" lon="113.8820089">
<ele>432.731</ele>
<time>2020-10-17T05:50:30.075Z</time>
</trkpt>
<trkpt lat="22.2319013" lon="113.8819169">
<ele>433.418</ele>
<time>2020-10-17T05:50:41.044Z</time>
</trkpt>
<trkpt lat="22.2318610" lon="113.8818199">
<ele>436.273</ele>
<time>2020-10-17T05:50:52.384Z</time>
</trkpt>
<trkpt lat="22.2318899" lon="113.8817250">
<ele>439.874</ele>
<time>2020-10-17T05:51:03.998Z</time>
</trkpt>
<trkpt lat="22.2318899" lon="113.8817250">
<ele>442.337</ele>
<time>2020-10-17T05:51:09.998Z</time>
</trkpt>
<trkpt lat="22.2318899" lon="113.8817250">
<ele>443.198</ele>
<time>2020-10-17T05:51:10.241Z</time>
</trkpt>
<trkpt lat="22.2319201" lon="113.8816164">
<ele>442.217</ele>
<time>2020-10-17T05:51:28.295Z</time>
</trkpt>
<trkpt lat="22.2319287" lon="113.8815179">
<ele>442.563</ele>
<time>2020-10-17T05:51:39.000Z</time>
</trkpt>
<trkpt lat="22.2319446" lon="113.8814175">
<ele>444.708</ele>
<time>2020-10-17T05:51:49.998Z</time>
</trkpt>
<trkpt lat="22.2319446" lon="113.8814175">
<ele>447.578</ele>
<time>2020-10-17T05:52:04.998Z</time>
</trkpt>
<trkpt lat="22.2319446" lon="113.8814175">
<ele>449.111</ele>
<time>2020-10-17T05:52:05.098Z</time>
</trkpt>
<trkpt lat="22.2319917" lon="113.8813184">
<ele>448.803</ele>
<time>2020-10-17T05:52:20.998Z</time>
</trkpt>
<trkpt lat="22.2319917" lon="113.8813184">
<ele>447.957</ele>
<time>2020-10-17T05:52:35.998Z</time>
</trkpt>
<trkpt lat="22.2319917" lon="113.8813184">
<ele>447.723</ele>
<time>2020-10-17T06:00:51.688Z</time>
</trkpt>
<trkpt lat="22.2319303" lon="113.8812438">
<ele>447.778</ele>
<time>2020-10-17T06:01:20.043Z</time>
</trkpt>
<trkpt lat="22.2318874" lon="113.8811553">
<ele>447.946</ele>
<time>2020-10-17T06:01:35.999Z</time>
</trkpt>
<trkpt lat="22.2318874" lon="113.8811553">
<ele>448.767</ele>
<time>2020-10-17T06:01:38.999Z</time>
</trkpt>
<trkpt lat="22.2318874" lon="113.8811553">
<ele>449.448</ele>
<time>2020-10-17T06:02:35.547Z</time>
</trkpt>
<trkpt lat="22.2318148" lon="113.8810949">
<ele>448.667</ele>
<time>2020-10-17T06:02:48.999Z</time>
</trkpt>
<trkpt lat="22.2318148" lon="113.8810949">
<ele>448.263</ele>
<time>2020-10-17T06:02:53.999Z</time>
</trkpt>
<trkpt lat="22.2318148" lon="113.8810949">
<ele>448.046</ele>
<time>2020-10-17T06:02:54.099Z</time>
</trkpt>
<trkpt lat="22.2317760" lon="113.8809913">
<ele>447.762</ele>
<time>2020-10-17T06:04:39.999Z</time>
</trkpt>
<trkpt lat="22.2317760" lon="113.8809913">
<ele>447.651</ele>
<time>2020-10-17T06:04:47.999Z</time>
</trkpt>
<trkpt lat="22.2317760" lon="113.8809913">
<ele>447.458</ele>
<time>2020-10-17T06:05:17.921Z</time>
</trkpt>
<trkpt lat="22.2316890" lon="113.8808955">
<ele>447.247</ele>
<time>2020-10-17T06:05:35.088Z</time>
</trkpt>
<trkpt lat="22.2316527" lon="113.8807947">
<ele>445.813</ele>
<time>2020-10-17T06:05:40.999Z</time>
</trkpt>
<trkpt lat="22.2316527" lon="113.8807947">
<ele>442.360</ele>
<time>2020-10-17T06:05:43.999Z</time>
</trkpt>
<trkpt lat="22.2316527" lon="113.8807947">
<ele>439.440</ele>
<time>2020-10-17T06:05:46.669Z</time>
</trkpt>
<trkpt lat="22.2315946" lon="113.8806944">
<ele>440.627</ele>
<time>2020-10-17T06:06:40.415Z</time>
</trkpt>
<trkpt lat="22.2315808" lon="113.8805873">
<ele>440.913</ele>
<time>2020-10-17T06:07:28.578Z</time>
</trkpt>
<trkpt lat="22.2315758" lon="113.8804901">
<ele>439.381</ele>
<time>2020-10-17T06:08:11.942Z</time>
</trkpt>
<trkpt lat="22.2315254" lon="113.8804075">
<ele>437.405</ele>
<time>2020-10-17T06:08:55.998Z</time>
</trkpt>
<trkpt lat="22.2315254" lon="113.8804075">
<ele>436.413</ele>
<time>2020-10-17T06:09:02.998Z</time>
</trkpt>
<trkpt lat="22.2315254" lon="113.8804075">
<ele>436.197</ele>
<time>2020-10-17T06:09:14.640Z</time>
</trkpt>
<trkpt lat="22.2315331" lon="113.8802889">
<ele>436.120</ele>
<time>2020-10-17T06:09:27.738Z</time>
</trkpt>
<trkpt lat="22.2315623" lon="113.8801923">
<ele>435.693</ele>
<time>2020-10-17T06:09:34.999Z</time>
</trkpt>
<trkpt lat="22.2315623" lon="113.8801923">
<ele>434.849</ele>
<time>2020-10-17T06:09:36.999Z</time>
</trkpt>
<trkpt lat="22.2315623" lon="113.8801923">
<ele>434.120</ele>
<time>2020-10-17T06:09:53.216Z</time>
</trkpt>
<trkpt lat="22.2315386" lon="113.8800983">
<ele>434.119</ele>
<time>2020-10-17T06:10:33.832Z</time>
</trkpt>
<trkpt lat="22.2315364" lon="113.8800001">
<ele>434.258</ele>
<time>2020-10-17T06:10:44.150Z</time>
</trkpt>
<trkpt lat="22.2315364" lon="113.8798980">
<ele>434.261</ele>
<time>2020-10-17T06:10:51.999Z</time>
</trkpt>
<trkpt lat="22.2315364" lon="113.8798980">
<ele>434.179</ele>
<time>2020-10-17T06:11:04.999Z</time>
</trkpt>
<trkpt lat="22.2315364" lon="113.8798980">
<ele>434.053</ele>
<time>2020-10-17T06:11:08.748Z</time>
</trkpt>
<trkpt lat="22.2314700" lon="113.8797118">
<ele>433.899</ele>
<time>2020-10-17T06:11:41.869Z</time>
</trkpt>
<trkpt lat="22.2314668" lon="113.8796099">
<ele>433.981</ele>
<time>2020-10-17T06:11:51.176Z</time>
</trkpt>
<trkpt lat="22.2314828" lon="113.8795023">
<ele>434.458</ele>
<time>2020-10-17T06:11:59.596Z</time>
</trkpt>
<trkpt lat="22.2315117" lon="113.8794065">
<ele>434.993</ele>
<time>2020-10-17T06:12:07.066Z</time>
</trkpt>
<trkpt lat="22.2315330" lon="113.8793063">
<ele>435.550</ele>
<time>2020-10-17T06:12:14.999Z</time>
</trkpt>
<trkpt lat="22.2315330" lon="113.8793063">
<ele>436.356</ele>
<time>2020-10-17T06:12:26.999Z</time>
</trkpt>
<trkpt lat="22.2315330" lon="113.8793063">
<ele>436.893</ele>
<time>2020-10-17T06:13:14.554Z</time>
</trkpt>
<trkpt lat="22.2315668" lon="113.8791699">
<ele>436.694</ele>
<time>2020-10-17T06:13:35.092Z</time>
</trkpt>
<trkpt lat="22.2316133" lon="113.8790806">
<ele>436.487</ele>
<time>2020-10-17T06:13:42.616Z</time>
</trkpt>
<trkpt lat="22.2316908" lon="113.8790262">
<ele>436.938</ele>
<time>2020-10-17T06:13:49.643Z</time>
</trkpt>
<trkpt lat="22.2317666" lon="113.8789730">
<ele>437.353</ele>
<time>2020-10-17T06:13:56.349Z</time>
</trkpt>
<trkpt lat="22.2317682" lon="113.8788759">
<ele>436.966</ele>
<time>2020-10-17T06:14:02.999Z</time>
</trkpt>
<trkpt lat="22.2317682" lon="113.8788759">
<ele>436.189</ele>
<time>2020-10-17T06:14:11.999Z</time>
</trkpt>
<trkpt lat="22.2317682" lon="113.8788759">
<ele>435.675</ele>
<time>2020-10-17T06:14:22.584Z</time>
</trkpt>
<trkpt lat="22.2317370" lon="113.8787354">
<ele>435.527</ele>
<time>2020-10-17T06:14:41.999Z</time>
</trkpt>
<trkpt lat="22.2317370" lon="113.8787354">
<ele>435.478</ele>
<time>2020-10-17T06:14:50.999Z</time>
</trkpt>
<trkpt lat="22.2317370" lon="113.8787354">
<ele>435.308</ele>
<time>2020-10-17T06:14:51.099Z</time>
</trkpt>
<trkpt lat="22.2316689" lon="113.8786334">
<ele>435.090</ele>
<time>2020-10-17T06:15:09.501Z</time>
</trkpt>
<trkpt lat="22.2316157" lon="113.8785529">
<ele>434.282</ele>
<time>2020-10-17T06:15:16.998Z</time>
</trkpt>
<trkpt lat="22.2316157" lon="113.8785529">
<ele>432.465</ele>
<time>2020-10-17T06:15:23.998Z</time>
</trkpt>
<trkpt lat="22.2316157" lon="113.8785529">
<ele>430.913</ele>
<time>2020-10-17T06:15:24.098Z</time>
</trkpt>
<trkpt lat="22.2315096" lon="113.8785009">
<ele>430.763</ele>
<time>2020-10-17T06:15:40.851Z</time>
</trkpt>
<trkpt lat="22.2314232" lon="113.8784562">
<ele>430.070</ele>
<time>2020-10-17T06:15:53.592Z</time>
</trkpt>
<trkpt lat="22.2314128" lon="113.8783597">
<ele>426.638</ele>
<time>2020-10-17T06:16:04.830Z</time>
</trkpt>
<trkpt lat="22.2314224" lon="113.8782583">
<ele>421.440</ele>
<time>2020-10-17T06:16:14.695Z</time>
</trkpt>
<trkpt lat="22.2314263" lon="113.8781609">
<ele>416.587</ele>
<time>2020-10-17T06:16:24.730Z</time>
</trkpt>
<trkpt lat="22.2313653" lon="113.8780886">
<ele>412.579</ele>
<time>2020-10-17T06:16:35.552Z</time>
</trkpt>
<trkpt lat="22.2312920" lon="113.8780290">
<ele>408.937</ele>
<time>2020-10-17T06:16:46.630Z</time>
</trkpt>
<trkpt lat="22.2312016" lon="113.8779735">
<ele>405.286</ele>
<time>2020-10-17T06:16:56.754Z</time>
</trkpt>
<trkpt lat="22.2311220" lon="113.8779220">
<ele>401.911</ele>
<time>2020-10-17T06:17:06.482Z</time>
</trkpt>
<trkpt lat="22.2310508" lon="113.8778607">
<ele>398.940</ele>
<time>2020-10-17T06:17:17.565Z</time>
</trkpt>
<trkpt lat="22.2310323" lon="113.8777598">
<ele>395.989</ele>
<time>2020-10-17T06:17:29.912Z</time>
</trkpt>
<trkpt lat="22.2310649" lon="113.8776659">
<ele>392.928</ele>
<time>2020-10-17T06:17:41.999Z</time>
</trkpt>
<trkpt lat="22.2310649" lon="113.8776659">
<ele>390.321</ele>
<time>2020-10-17T06:17:43.999Z</time>
</trkpt>
<trkpt lat="22.2310649" lon="113.8776659">
<ele>388.973</ele>
<time>2020-10-17T06:18:01.999Z</time>
</trkpt>
<trkpt lat="22.2310649" lon="113.8776659">
<ele>388.940</ele>
<time>2020-10-17T06:18:08.721Z</time>
</trkpt>
<trkpt lat="22.2310649" lon="113.8776659">
<ele>389.132</ele>
<time>2020-10-17T06:18:53.999Z</time>
</trkpt>
<trkpt lat="22.2310649" lon="113.8776659">
<ele>388.799</ele>
<time>2020-10-17T06:19:01.574Z</time>
</trkpt>
<trkpt lat="22.2311157" lon="113.8775831">
<ele>388.604</ele>
<time>2020-10-17T06:20:17.773Z</time>
</trkpt>
<trkpt lat="22.2311604" lon="113.8774950">
<ele>387.815</ele>
<time>2020-10-17T06:20:30.999Z</time>
</trkpt>
<trkpt lat="22.2311604" lon="113.8774950">
<ele>385.697</ele>
<time>2020-10-17T06:20:40.999Z</time>
</trkpt>
<trkpt lat="22.2311604" lon="113.8774950">
<ele>383.854</ele>
<time>2020-10-17T06:20:52.657Z</time>
</trkpt>
<trkpt lat="22.2312097" lon="113.8773763">
<ele>383.723</ele>
<time>2020-10-17T06:21:11.323Z</time>
</trkpt>
<trkpt lat="22.2312603" lon="113.8772956">
<ele>383.348</ele>
<time>2020-10-17T06:21:23.524Z</time>
</trkpt>
<trkpt lat="22.2312983" lon="113.8772017">
<ele>380.888</ele>
<time>2020-10-17T06:21:37.903Z</time>
</trkpt>
<trkpt lat="22.2312481" lon="113.8771151">
<ele>377.523</ele>
<time>2020-10-17T06:21:49.856Z</time>
</trkpt>
<trkpt lat="22.2311992" lon="113.8770269">
<ele>375.014</ele>
<time>2020-10-17T06:22:00.482Z</time>
</trkpt>
<trkpt lat="22.2312126" lon="113.8769159">
<ele>373.749</ele>
<time>2020-10-17T06:22:10.550Z</time>
</trkpt>
<trkpt lat="22.2312071" lon="113.8768179">
<ele>373.424</ele>
<time>2020-10-17T06:22:17.352Z</time>
</trkpt>
<trkpt lat="22.2311677" lon="113.8767250">
<ele>373.220</ele>
<time>2020-10-17T06:22:24.498Z</time>
</trkpt>
<trkpt lat="22.2311058" lon="113.8766460">
<ele>372.726</ele>
<time>2020-10-17T06:22:32.830Z</time>
</trkpt>
<trkpt lat="22.2310530" lon="113.8765635">
<ele>371.840</ele>
<time>2020-10-17T06:22:42.497Z</time>
</trkpt>
<trkpt lat="22.2309673" lon="113.8765080">
<ele>370.560</ele>
<time>2020-10-17T06:22:52.807Z</time>
</trkpt>
<trkpt lat="22.2308820" lon="113.8764580">
<ele>369.330</ele>
<time>2020-10-17T06:23:01.306Z</time>
</trkpt>
<trkpt lat="22.2308042" lon="113.8764003">
<ele>368.616</ele>
<time>2020-10-17T06:23:09.832Z</time>
</trkpt>
<trkpt lat="22.2307561" lon="113.8763136">
<ele>368.111</ele>
<time>2020-10-17T06:23:19.828Z</time>
</trkpt>
<trkpt lat="22.2307709" lon="113.8762137">
<ele>367.427</ele>
<time>2020-10-17T06:23:31.933Z</time>
</trkpt>
<trkpt lat="22.2308011" lon="113.8761037">
<ele>366.660</ele>
<time>2020-10-17T06:23:41.237Z</time>
</trkpt>
<trkpt lat="22.2307831" lon="113.8759990">
<ele>365.997</ele>
<time>2020-10-17T06:23:48.681Z</time>
</trkpt>
<trkpt lat="22.2307303" lon="113.8759118">
<ele>365.481</ele>
<time>2020-10-17T06:23:57.646Z</time>
</trkpt>
<trkpt lat="22.2306876" lon="113.8758259">
<ele>364.981</ele>
<time>2020-10-17T06:24:11.976Z</time>
</trkpt>
<trkpt lat="22.2306154" lon="113.8757665">
<ele>363.961</ele>
<time>2020-10-17T06:24:26.260Z</time>
</trkpt>
<trkpt lat="22.2305669" lon="113.8756798">
<ele>362.315</ele>
<time>2020-10-17T06:24:37.048Z</time>
</trkpt>
<trkpt lat="22.2305957" lon="113.8755810">
<ele>360.525</ele>
<time>2020-10-17T06:24:46.702Z</time>
</trkpt>
<trkpt lat="22.2306029" lon="113.8754745">
<ele>358.727</ele>
<time>2020-10-17T06:24:55.902Z</time>
</trkpt>
<trkpt lat="22.2305990" lon="113.8753690">
<ele>356.947</ele>
<time>2020-10-17T06:25:04.981Z</time>
</trkpt>
<trkpt lat="22.2306027" lon="113.8752673">
<ele>355.592</ele>
<time>2020-10-17T06:25:13.821Z</time>
</trkpt>
<trkpt lat="22.2305750" lon="113.8751707">
<ele>354.864</ele>
<time>2020-10-17T06:25:23.201Z</time>
</trkpt>
<trkpt lat="22.2305872" lon="113.8750738">
<ele>354.454</ele>
<time>2020-10-17T06:25:33.456Z</time>
</trkpt>
<trkpt lat="22.2306077" lon="113.8749763">
<ele>353.888</ele>
<time>2020-10-17T06:25:43.716Z</time>
</trkpt>
<trkpt lat="22.2306104" lon="113.8748732">
<ele>353.145</ele>
<time>2020-10-17T06:25:54.703Z</time>
</trkpt>
<trkpt lat="22.2306130" lon="113.8747746">
<ele>352.606</ele>
<time>2020-10-17T06:26:06.246Z</time>
</trkpt>
<trkpt lat="22.2306150" lon="113.8746685">
<ele>352.437</ele>
<time>2020-10-17T06:26:16.825Z</time>
</trkpt>
<trkpt lat="22.2306633" lon="113.8745862">
<ele>352.706</ele>
<time>2020-10-17T06:26:25.999Z</time>
</trkpt>
<trkpt lat="22.2306633" lon="113.8745862">
<ele>353.367</ele>
<time>2020-10-17T06:26:38.999Z</time>
</trkpt>
<trkpt lat="22.2306633" lon="113.8745862">
<ele>353.832</ele>
<time>2020-10-17T06:26:42.679Z</time>
</trkpt>
<trkpt lat="22.2306470" lon="113.8744838">
<ele>353.673</ele>
<time>2020-10-17T06:26:56.999Z</time>
</trkpt>
<trkpt lat="22.2306470" lon="113.8744838">
<ele>353.290</ele>
<time>2020-10-17T06:26:59.999Z</time>
</trkpt>
<trkpt lat="22.2306470" lon="113.8744838">
<ele>353.126</ele>
<time>2020-10-17T06:27:20.383Z</time>
</trkpt>
<trkpt lat="22.2306331" lon="113.8744998">
<ele>355.079</ele>
<time>2020-10-17T06:27:33.999Z</time>
</trkpt>
<trkpt lat="22.2306331" lon="113.8744998">
<ele>354.915</ele>
<time>2020-10-17T06:28:23.999Z</time>
</trkpt>
<trkpt lat="22.2306331" lon="113.8744998">
<ele>354.824</ele>
<time>2020-10-17T06:28:24.099Z</time>
</trkpt>
<trkpt lat="22.2306956" lon="113.8743609">
<ele>354.723</ele>
<time>2020-10-17T06:28:41.999Z</time>
</trkpt>
<trkpt lat="22.2306956" lon="113.8743609">
<ele>354.575</ele>
<time>2020-10-17T06:28:53.999Z</time>
</trkpt>
<trkpt lat="22.2306956" lon="113.8743609">
<ele>354.400</ele>
<time>2020-10-17T06:30:43.314Z</time>
</trkpt>
<trkpt lat="22.2306864" lon="113.8742247">
<ele>354.267</ele>
<time>2020-10-17T06:31:02.974Z</time>
</trkpt>
<trkpt lat="22.2306903" lon="113.8741272">
<ele>354.515</ele>
<time>2020-10-17T06:31:09.999Z</time>
</trkpt>
<trkpt lat="22.2306903" lon="113.8741272">
<ele>355.279</ele>
<time>2020-10-17T06:31:12.999Z</time>
</trkpt>
<trkpt lat="22.2306903" lon="113.8741272">
<ele>355.860</ele>
<time>2020-10-17T06:35:25.829Z</time>
</trkpt>
<trkpt lat="22.2307208" lon="113.8740025">
<ele>355.214</ele>
<time>2020-10-17T06:36:18.439Z</time>
</trkpt>
<trkpt lat="22.2307382" lon="113.8739062">
<ele>355.412</ele>
<time>2020-10-17T06:36:39.794Z</time>
</trkpt>
<trkpt lat="22.2307505" lon="113.8738083">
<ele>356.663</ele>
<time>2020-10-17T06:36:50.735Z</time>
</trkpt>
<trkpt lat="22.2307470" lon="113.8737008">
<ele>357.710</ele>
<time>2020-10-17T06:37:02.591Z</time>
</trkpt>
<trkpt lat="22.2307563" lon="113.8736000">
<ele>357.297</ele>
<time>2020-10-17T06:37:14.385Z</time>
</trkpt>
<trkpt lat="22.2307466" lon="113.8734979">
<ele>355.645</ele>
<time>2020-10-17T06:37:28.159Z</time>
</trkpt>
<trkpt lat="22.2307404" lon="113.8733996">
<ele>353.441</ele>
<time>2020-10-17T06:37:44.686Z</time>
</trkpt>
<trkpt lat="22.2307381" lon="113.8732971">
<ele>351.057</ele>
<time>2020-10-17T06:38:00.229Z</time>
</trkpt>
<trkpt lat="22.2307810" lon="113.8732094">
<ele>348.742</ele>
<time>2020-10-17T06:38:11.999Z</time>
</trkpt>
<trkpt lat="22.2307810" lon="113.8732094">
<ele>346.952</ele>
<time>2020-10-17T06:38:12.999Z</time>
</trkpt>
<trkpt lat="22.2307810" lon="113.8732094">
<ele>346.119</ele>
<time>2020-10-17T06:38:22.785Z</time>
</trkpt>
<trkpt lat="22.2307810" lon="113.8732094">
<ele>346.317</ele>
<time>2020-10-17T06:38:34.999Z</time>
</trkpt>
<trkpt lat="22.2307810" lon="113.8732094">
<ele>346.424</ele>
<time>2020-10-17T06:38:35.099Z</time>
</trkpt>
<trkpt lat="22.2307673" lon="113.8731062">
<ele>346.239</ele>
<time>2020-10-17T06:38:53.940Z</time>
</trkpt>
<trkpt lat="22.2307995" lon="113.8730143">
<ele>345.843</ele>
<time>2020-10-17T06:39:07.676Z</time>
</trkpt>
<trkpt lat="22.2308213" lon="113.8729171">
<ele>345.061</ele>
<time>2020-10-17T06:39:22.999Z</time>
</trkpt>
<trkpt lat="22.2308213" lon="113.8729171">
<ele>343.845</ele>
<time>2020-10-17T06:39:23.999Z</time>
</trkpt>
<trkpt lat="22.2308213" lon="113.8729171">
<ele>342.922</ele>
<time>2020-10-17T06:39:25.843Z</time>
</trkpt>
<trkpt lat="22.2308253" lon="113.8728149">
<ele>343.120</ele>
<time>2020-10-17T06:39:54.830Z</time>
</trkpt>
<trkpt lat="22.2309000" lon="113.8727426">
<ele>342.903</ele>
<time>2020-10-17T06:40:13.295Z</time>
</trkpt>
<trkpt lat="22.2309283" lon="113.8726469">
<ele>341.596</ele>
<time>2020-10-17T06:40:29.887Z</time>
</trkpt>
<trkpt lat="22.2309531" lon="113.8725524">
<ele>339.767</ele>
<time>2020-10-17T06:40:43.035Z</time>
</trkpt>
<trkpt lat="22.2309931" lon="113.8724645">
<ele>338.338</ele>
<time>2020-10-17T06:40:52.398Z</time>
</trkpt>
<trkpt lat="22.2310260" lon="113.8723695">
<ele>337.596</ele>
<time>2020-10-17T06:41:01.856Z</time>
</trkpt>
<trkpt lat="22.2310484" lon="113.8722740">
<ele>337.482</ele>
<time>2020-10-17T06:41:11.693Z</time>
</trkpt>
<trkpt lat="22.2310671" lon="113.8721723">
<ele>337.744</ele>
<time>2020-10-17T06:41:22.596Z</time>
</trkpt>
<trkpt lat="22.2310539" lon="113.8720739">
<ele>338.022</ele>
<time>2020-10-17T06:41:32.999Z</time>
</trkpt>
<trkpt lat="22.2310539" lon="113.8720739">
<ele>338.110</ele>
<time>2020-10-17T06:41:39.999Z</time>
</trkpt>
<trkpt lat="22.2310539" lon="113.8720739">
<ele>338.034</ele>
<time>2020-10-17T06:41:40.099Z</time>
</trkpt>
<trkpt lat="22.2310767" lon="113.8719795">
<ele>337.882</ele>
<time>2020-10-17T06:42:00.999Z</time>
</trkpt>
<trkpt lat="22.2310767" lon="113.8719795">
<ele>337.753</ele>
<time>2020-10-17T06:42:02.999Z</time>
</trkpt>
<trkpt lat="22.2310767" lon="113.8719795">
<ele>337.668</ele>
<time>2020-10-17T06:42:03.099Z</time>
</trkpt>
<trkpt lat="22.2311168" lon="113.8718856">
<ele>337.446</ele>
<time>2020-10-17T06:42:26.919Z</time>
</trkpt>
<trkpt lat="22.2311729" lon="113.8717966">
<ele>337.650</ele>
<time>2020-10-17T06:42:34.999Z</time>
</trkpt>
<trkpt lat="22.2311729" lon="113.8717966">
<ele>338.358</ele>
<time>2020-10-17T06:42:48.999Z</time>
</trkpt>
<trkpt lat="22.2311729" lon="113.8717966">
<ele>338.915</ele>
<time>2020-10-17T06:42:57.359Z</time>
</trkpt>
<trkpt lat="22.2312874" lon="113.8717197">
<ele>338.767</ele>
<time>2020-10-17T06:43:14.075Z</time>
</trkpt>
<trkpt lat="22.2313841" lon="113.8717094">
<ele>338.489</ele>
<time>2020-10-17T06:43:21.165Z</time>
</trkpt>
<trkpt lat="22.2314133" lon="113.8716169">
<ele>338.674</ele>
<time>2020-10-17T06:43:27.999Z</time>
</trkpt>
<trkpt lat="22.2314133" lon="113.8716169">
<ele>338.936</ele>
<time>2020-10-17T06:43:30.999Z</time>
</trkpt>
<trkpt lat="22.2314133" lon="113.8716169">
<ele>338.810</ele>
<time>2020-10-17T06:43:38.287Z</time>
</trkpt>
<trkpt lat="22.2314843" lon="113.8715383">
<ele>338.423</ele>
<time>2020-10-17T06:43:55.890Z</time>
</trkpt>
<trkpt lat="22.2314493" lon="113.8714395">
<ele>338.458</ele>
<time>2020-10-17T06:44:04.358Z</time>
</trkpt>
<trkpt lat="22.2314085" lon="113.8713434">
<ele>338.515</ele>
<time>2020-10-17T06:44:12.209Z</time>
</trkpt>
<trkpt lat="22.2314154" lon="113.8712367">
<ele>338.740</ele>
<time>2020-10-17T06:44:20.718Z</time>
</trkpt>
<trkpt lat="22.2314285" lon="113.8711331">
<ele>339.308</ele>
<time>2020-10-17T06:44:29.721Z</time>
</trkpt>
<trkpt lat="22.2313398" lon="113.8710827">
<ele>340.212</ele>
<time>2020-10-17T06:44:39.044Z</time>
</trkpt>
<trkpt lat="22.2312465" lon="113.8710688">
<ele>341.225</ele>
<time>2020-10-17T06:44:47.179Z</time>
</trkpt>
<trkpt lat="22.2311468" lon="113.8710705">
<ele>341.042</ele>
<time>2020-10-17T06:44:55.729Z</time>
</trkpt>
<trkpt lat="22.2311012" lon="113.8709791">
<ele>338.911</ele>
<time>2020-10-17T06:45:04.595Z</time>
</trkpt>
<trkpt lat="22.2311387" lon="113.8708855">
<ele>337.539</ele>
<time>2020-10-17T06:45:13.670Z</time>
</trkpt>
<trkpt lat="22.2311668" lon="113.8707859">
<ele>339.193</ele>
<time>2020-10-17T06:45:23.569Z</time>
</trkpt>
<trkpt lat="22.2311897" lon="113.8706920">
<ele>342.001</ele>
<time>2020-10-17T06:45:34.242Z</time>
</trkpt>
<trkpt lat="22.2312677" lon="113.8706431">
<ele>343.159</ele>
<time>2020-10-17T06:45:46.999Z</time>
</trkpt>
<trkpt lat="22.2312677" lon="113.8706431">
<ele>342.265</ele>
<time>2020-10-17T06:45:48.999Z</time>
</trkpt>
<trkpt lat="22.2312677" lon="113.8706431">
<ele>341.018</ele>
<time>2020-10-17T06:45:49.099Z</time>
</trkpt>
<trkpt lat="22.2312820" lon="113.8705387">
<ele>341.341</ele>
<time>2020-10-17T06:46:08.164Z</time>
</trkpt>
<trkpt lat="22.2313320" lon="113.8704523">
<ele>340.997</ele>
<time>2020-10-17T06:46:18.999Z</time>
</trkpt>
<trkpt lat="22.2313320" lon="113.8704523">
<ele>339.170</ele>
<time>2020-10-17T06:46:28.999Z</time>
</trkpt>
<trkpt lat="22.2313320" lon="113.8704523">
<ele>337.467</ele>
<time>2020-10-17T06:46:29.099Z</time>
</trkpt>
<trkpt lat="22.2313188" lon="113.8703389">
<ele>337.340</ele>
<time>2020-10-17T06:46:41.999Z</time>
</trkpt>
<trkpt lat="22.2313188" lon="113.8703389">
<ele>337.818</ele>
<time>2020-10-17T06:46:43.999Z</time>
</trkpt>
<trkpt lat="22.2313188" lon="113.8703389">
<ele>337.746</ele>
<time>2020-10-17T06:46:44.099Z</time>
</trkpt>
<trkpt lat="22.2313092" lon="113.8702336">
<ele>337.302</ele>
<time>2020-10-17T06:47:15.838Z</time>
</trkpt>
<trkpt lat="22.2313601" lon="113.8701505">
<ele>336.091</ele>
<time>2020-10-17T06:47:32.999Z</time>
</trkpt>
<trkpt lat="22.2313601" lon="113.8701505">
<ele>333.644</ele>
<time>2020-10-17T06:47:38.999Z</time>
</trkpt>
<trkpt lat="22.2313601" lon="113.8701505">
<ele>331.638</ele>
<time>2020-10-17T06:47:39.099Z</time>
</trkpt>
<trkpt lat="22.2314257" lon="113.8700822">
<ele>332.431</ele>
<time>2020-10-17T06:47:51.496Z</time>
</trkpt>
<trkpt lat="22.2314388" lon="113.8699813">
<ele>332.365</ele>
<time>2020-10-17T06:48:00.606Z</time>
</trkpt>
<trkpt lat="22.2314034" lon="113.8698871">
<ele>330.453</ele>
<time>2020-10-17T06:48:10.466Z</time>
</trkpt>
<trkpt lat="22.2314485" lon="113.8697979">
<ele>327.777</ele>
<time>2020-10-17T06:48:21.428Z</time>
</trkpt>
<trkpt lat="22.2315058" lon="113.8697150">
<ele>325.744</ele>
<time>2020-10-17T06:48:32.117Z</time>
</trkpt>
<trkpt lat="22.2315578" lon="113.8696292">
<ele>324.487</ele>
<time>2020-10-17T06:48:40.602Z</time>
</trkpt>
<trkpt lat="22.2315649" lon="113.8695275">
<ele>323.796</ele>
<time>2020-10-17T06:48:48.851Z</time>
</trkpt>
<trkpt lat="22.2316205" lon="113.8694507">
<ele>323.573</ele>
<time>2020-10-17T06:48:57.607Z</time>
</trkpt>
<trkpt lat="22.2316900" lon="113.8693787">
<ele>323.758</ele>
<time>2020-10-17T06:49:07.377Z</time>
</trkpt>
<trkpt lat="22.2317612" lon="113.8693161">
<ele>324.195</ele>
<time>2020-10-17T06:49:15.999Z</time>
</trkpt>
<trkpt lat="22.2317612" lon="113.8693161">
<ele>324.599</ele>
<time>2020-10-17T06:49:20.999Z</time>
</trkpt>
<trkpt lat="22.2317612" lon="113.8693161">
<ele>324.709</ele>
<time>2020-10-17T06:49:22.023Z</time>
</trkpt>
<trkpt lat="22.2318367" lon="113.8692618">
<ele>324.331</ele>
<time>2020-10-17T06:49:40.494Z</time>
</trkpt>
<trkpt lat="22.2318870" lon="113.8691749">
<ele>324.580</ele>
<time>2020-10-17T06:49:51.937Z</time>
</trkpt>
<trkpt lat="22.2319548" lon="113.8691057">
<ele>325.515</ele>
<time>2020-10-17T06:50:02.754Z</time>
</trkpt>
<trkpt lat="22.2320267" lon="113.8690361">
<ele>326.819</ele>
<time>2020-10-17T06:50:12.999Z</time>
</trkpt>
<trkpt lat="22.2320267" lon="113.8690361">
<ele>328.089</ele>
<time>2020-10-17T06:50:22.999Z</time>
</trkpt>
<trkpt lat="22.2320267" lon="113.8690361">
<ele>328.783</ele>
<time>2020-10-17T06:59:18.016Z</time>
</trkpt>
<trkpt lat="22.2321521" lon="113.8688905">
<ele>328.421</ele>
<time>2020-10-17T06:59:43.112Z</time>
</trkpt>
<trkpt lat="22.2321947" lon="113.8687931">
<ele>327.402</ele>
<time>2020-10-17T06:59:52.204Z</time>
</trkpt>
<trkpt lat="22.2322324" lon="113.8686976">
<ele>326.340</ele>
<time>2020-10-17T07:00:00.439Z</time>
</trkpt>
<trkpt lat="22.2323038" lon="113.8686168">
<ele>325.478</ele>
<time>2020-10-17T07:00:11.133Z</time>
</trkpt>
<trkpt lat="22.2323453" lon="113.8685307">
<ele>324.715</ele>
<time>2020-10-17T07:00:24.435Z</time>
</trkpt>
<trkpt lat="22.2323937" lon="113.8684473">
<ele>323.790</ele>
<time>2020-10-17T07:00:39.987Z</time>
</trkpt>
<trkpt lat="22.2324532" lon="113.8683707">
<ele>322.302</ele>
<time>2020-10-17T07:00:55.079Z</time>
</trkpt>
<trkpt lat="22.2325070" lon="113.8682811">
<ele>319.923</ele>
<time>2020-10-17T07:01:07.240Z</time>
</trkpt>
<trkpt lat="22.2325433" lon="113.8681795">
<ele>316.962</ele>
<time>2020-10-17T07:01:17.251Z</time>
</trkpt>
<trkpt lat="22.2325956" lon="113.8680980">
<ele>314.200</ele>
<time>2020-10-17T07:01:25.324Z</time>
</trkpt>
<trkpt lat="22.2326382" lon="113.8680096">
<ele>311.926</ele>
<time>2020-10-17T07:01:33.872Z</time>
</trkpt>
<trkpt lat="22.2326911" lon="113.8679278">
<ele>310.018</ele>
<time>2020-10-17T07:01:43.156Z</time>
</trkpt>
<trkpt lat="22.2327669" lon="113.8678671">
<ele>308.452</ele>
<time>2020-10-17T07:01:55.188Z</time>
</trkpt>
<trkpt lat="22.2328049" lon="113.8677761">
<ele>307.321</ele>
<time>2020-10-17T07:02:08.218Z</time>
</trkpt>
<trkpt lat="22.2328330" lon="113.8676785">
<ele>306.417</ele>
<time>2020-10-17T07:02:21.417Z</time>
</trkpt>
<trkpt lat="22.2328886" lon="113.8675948">
<ele>305.486</ele>
<time>2020-10-17T07:02:33.800Z</time>
</trkpt>
<trkpt lat="22.2329450" lon="113.8675114">
<ele>305.059</ele>
<time>2020-10-17T07:02:43.905Z</time>
</trkpt>
<trkpt lat="22.2330088" lon="113.8674385">
<ele>305.570</ele>
<time>2020-10-17T07:02:52.056Z</time>
</trkpt>
<trkpt lat="22.2330518" lon="113.8673527">
<ele>306.384</ele>
<time>2020-10-17T07:03:02.125Z</time>
</trkpt>
<trkpt lat="22.2330658" lon="113.8672561">
<ele>306.803</ele>
<time>2020-10-17T07:03:12.999Z</time>
</trkpt>
<trkpt lat="22.2330658" lon="113.8672561">
<ele>306.794</ele>
<time>2020-10-17T07:03:30.999Z</time>
</trkpt>
<trkpt lat="22.2330658" lon="113.8672561">
<ele>306.613</ele>
<time>2020-10-17T07:03:42.999Z</time>
</trkpt>
<trkpt lat="22.2330658" lon="113.8672561">
<ele>306.471</ele>
<time>2020-10-17T07:19:43.530Z</time>
</trkpt>
<trkpt lat="22.2331223" lon="113.8670798">
<ele>306.390</ele>
<time>2020-10-17T07:20:11.732Z</time>
</trkpt>
<trkpt lat="22.2332290" lon="113.8671022">
<ele>305.415</ele>
<time>2020-10-17T07:20:19.690Z</time>
</trkpt>
<trkpt lat="22.2332943" lon="113.8671748">
<ele>300.550</ele>
<time>2020-10-17T07:20:25.016Z</time>
</trkpt>
<trkpt lat="22.2333286" lon="113.8672683">
<ele>299.017</ele>
<time>2020-10-17T07:20:29.864Z</time>
</trkpt>
<trkpt lat="22.2333482" lon="113.8673713">
<ele>296.834</ele>
<time>2020-10-17T07:20:34.484Z</time>
</trkpt>
<trkpt lat="22.2334076" lon="113.8674516">
<ele>295.816</ele>
<time>2020-10-17T07:20:38.152Z</time>
</trkpt>
<trkpt lat="22.2334777" lon="113.8675163">
<ele>294.675</ele>
<time>2020-10-17T07:20:41.283Z</time>
</trkpt>
<trkpt lat="22.2335517" lon="113.8675856">
<ele>293.751</ele>
<time>2020-10-17T07:20:44.586Z</time>
</trkpt>
<trkpt lat="22.2336183" lon="113.8676583">
<ele>293.231</ele>
<time>2020-10-17T07:20:47.928Z</time>
</trkpt>
<trkpt lat="22.2336742" lon="113.8677657">
<ele>293.227</ele>
<time>2020-10-17T07:20:52.531Z</time>
</trkpt>
<trkpt lat="22.2336939" lon="113.8678629">
<ele>292.967</ele>
<time>2020-10-17T07:20:56.631Z</time>
</trkpt>
<trkpt lat="22.2336608" lon="113.8679620">
<ele>292.245</ele>
<time>2020-10-17T07:21:01.084Z</time>
</trkpt>
<trkpt lat="22.2336549" lon="113.8680819">
<ele>291.068</ele>
<time>2020-10-17T07:21:05.574Z</time>
</trkpt>
<trkpt lat="22.2336774" lon="113.8681803">
<ele>289.618</ele>
<time>2020-10-17T07:21:09.439Z</time>
</trkpt>
<trkpt lat="22.2336985" lon="113.8682759">
<ele>288.137</ele>
<time>2020-10-17T07:21:13.424Z</time>
</trkpt>
<trkpt lat="22.2337811" lon="113.8683527">
<ele>286.771</ele>
<time>2020-10-17T07:21:18.655Z</time>
</trkpt>
<trkpt lat="22.2338588" lon="113.8684277">
<ele>285.493</ele>
<time>2020-10-17T07:21:25.404Z</time>
</trkpt>
<trkpt lat="22.2339503" lon="113.8684473">
<ele>283.518</ele>
<time>2020-10-17T07:21:32.614Z</time>
</trkpt>
<trkpt lat="22.2340337" lon="113.8684873">
<ele>282.352</ele>
<time>2020-10-17T07:21:43.393Z</time>
</trkpt>
<trkpt lat="22.2340971" lon="113.8685585">
<ele>278.820</ele>
<time>2020-10-17T07:21:54.407Z</time>
</trkpt>
<trkpt lat="22.2341544" lon="113.8686370">
<ele>272.580</ele>
<time>2020-10-17T07:22:04.379Z</time>
</trkpt>
<trkpt lat="22.2341869" lon="113.8687330">
<ele>266.669</ele>
<time>2020-10-17T07:22:13.742Z</time>
</trkpt>
<trkpt lat="22.2342299" lon="113.8688209">
<ele>263.347</ele>
<time>2020-10-17T07:22:22.988Z</time>
</trkpt>
<trkpt lat="22.2343039" lon="113.8688848">
<ele>261.872</ele>
<time>2020-10-17T07:22:34.004Z</time>
</trkpt>
<trkpt lat="22.2343769" lon="113.8689561">
<ele>261.016</ele>
<time>2020-10-17T07:22:48.871Z</time>
</trkpt>
<trkpt lat="22.2344661" lon="113.8689977">
<ele>260.085</ele>
<time>2020-10-17T07:23:01.302Z</time>
</trkpt>
<trkpt lat="22.2345426" lon="113.8690546">
<ele>258.962</ele>
<time>2020-10-17T07:23:09.718Z</time>
</trkpt>
<trkpt lat="22.2345927" lon="113.8691448">
<ele>257.824</ele>
<time>2020-10-17T07:23:17.937Z</time>
</trkpt>
<trkpt lat="22.2346470" lon="113.8692296">
<ele>257.058</ele>
<time>2020-10-17T07:23:26.668Z</time>
</trkpt>
<trkpt lat="22.2347244" lon="113.8692847">
<ele>256.423</ele>
<time>2020-10-17T07:23:37.023Z</time>
</trkpt>
<trkpt lat="22.2347759" lon="113.8693643">
<ele>255.217</ele>
<time>2020-10-17T07:23:47.996Z</time>
</trkpt>
<trkpt lat="22.2347973" lon="113.8694666">
<ele>253.331</ele>
<time>2020-10-17T07:24:00.721Z</time>
</trkpt>
<trkpt lat="22.2348397" lon="113.8695591">
<ele>250.986</ele>
<time>2020-10-17T07:24:11.247Z</time>
</trkpt>
<trkpt lat="22.2348604" lon="113.8696583">
<ele>248.475</ele>
<time>2020-10-17T07:24:22.824Z</time>
</trkpt>
<trkpt lat="22.2348655" lon="113.8697578">
<ele>246.475</ele>
<time>2020-10-17T07:24:37.999Z</time>
</trkpt>
<trkpt lat="22.2348655" lon="113.8697578">
<ele>245.455</ele>
<time>2020-10-17T07:24:47.999Z</time>
</trkpt>
<trkpt lat="22.2348655" lon="113.8697578">
<ele>245.214</ele>
<time>2020-10-17T07:24:48.099Z</time>
</trkpt>
<trkpt lat="22.2348372" lon="113.8698840">
<ele>245.272</ele>
<time>2020-10-17T07:25:04.963Z</time>
</trkpt>
<trkpt lat="22.2348281" lon="113.8699882">
<ele>244.796</ele>
<time>2020-10-17T07:25:17.075Z</time>
</trkpt>
<trkpt lat="22.2348544" lon="113.8700885">
<ele>243.787</ele>
<time>2020-10-17T07:25:30.761Z</time>
</trkpt>
<trkpt lat="22.2348787" lon="113.8701873">
<ele>242.387</ele>
<time>2020-10-17T07:25:43.644Z</time>
</trkpt>
<trkpt lat="22.2349255" lon="113.8702743">
<ele>238.916</ele>
<time>2020-10-17T07:25:53.967Z</time>
</trkpt>
<trkpt lat="22.2350171" lon="113.8702931">
<ele>232.555</ele>
<time>2020-10-17T07:26:03.639Z</time>
</trkpt>
<trkpt lat="22.2351108" lon="113.8703155">
<ele>226.280</ele>
<time>2020-10-17T07:26:14.477Z</time>
</trkpt>
<trkpt lat="22.2352013" lon="113.8703245">
<ele>222.387</ele>
<time>2020-10-17T07:26:25.998Z</time>
</trkpt>
<trkpt lat="22.2352013" lon="113.8703245">
<ele>220.327</ele>
<time>2020-10-17T07:26:32.998Z</time>
</trkpt>
<trkpt lat="22.2352013" lon="113.8703245">
<ele>219.540</ele>
<time>2020-10-17T07:26:38.893Z</time>
</trkpt>
<trkpt lat="22.2353070" lon="113.8703463">
<ele>219.577</ele>
<time>2020-10-17T07:26:49.998Z</time>
</trkpt>
<trkpt lat="22.2353070" lon="113.8703463">
<ele>219.749</ele>
<time>2020-10-17T07:26:54.998Z</time>
</trkpt>
<trkpt lat="22.2353070" lon="113.8703463">
<ele>219.675</ele>
<time>2020-10-17T07:32:13.531Z</time>
</trkpt>
<trkpt lat="22.2354219" lon="113.8702286">
<ele>219.467</ele>
<time>2020-10-17T07:32:26.999Z</time>
</trkpt>
<trkpt lat="22.2354219" lon="113.8702286">
<ele>219.317</ele>
<time>2020-10-17T07:32:39.999Z</time>
</trkpt>
<trkpt lat="22.2354219" lon="113.8702286">
<ele>219.214</ele>
<time>2020-10-17T07:34:05.998Z</time>
</trkpt>
<trkpt lat="22.2354219" lon="113.8702286">
<ele>219.126</ele>
<time>2020-10-17T07:34:33.998Z</time>
</trkpt>
<trkpt lat="22.2354219" lon="113.8702286">
<ele>219.054</ele>
<time>2020-10-17T07:38:10.896Z</time>
</trkpt>
<trkpt lat="22.2355390" lon="113.8701926">
<ele>218.986</ele>
<time>2020-10-17T07:38:33.925Z</time>
</trkpt>
<trkpt lat="22.2356229" lon="113.8701558">
<ele>218.125</ele>
<time>2020-10-17T07:38:44.881Z</time>
</trkpt>
<trkpt lat="22.2357133" lon="113.8701497">
<ele>215.966</ele>
<time>2020-10-17T07:38:53.805Z</time>
</trkpt>
<trkpt lat="22.2358138" lon="113.8701485">
<ele>213.717</ele>
<time>2020-10-17T07:39:03.253Z</time>
</trkpt>
<trkpt lat="22.2359027" lon="113.8701308">
<ele>212.605</ele>
<time>2020-10-17T07:39:12.999Z</time>
</trkpt>
<trkpt lat="22.2359027" lon="113.8701308">
<ele>212.416</ele>
<time>2020-10-17T07:39:12.999Z</time>
</trkpt>
<trkpt lat="22.2359027" lon="113.8701308">
<ele>212.524</ele>
<time>2020-10-17T07:39:13.099Z</time>
</trkpt>
<trkpt lat="22.2359872" lon="113.8701677">
<ele>212.534</ele>
<time>2020-10-17T07:39:29.506Z</time>
</trkpt>
<trkpt lat="22.2360736" lon="113.8702199">
<ele>212.536</ele>
<time>2020-10-17T07:39:38.680Z</time>
</trkpt>
<trkpt lat="22.2361370" lon="113.8702914">
<ele>212.705</ele>
<time>2020-10-17T07:39:46.586Z</time>
</trkpt>
<trkpt lat="22.2362006" lon="113.8703623">
<ele>212.921</ele>
<time>2020-10-17T07:39:53.999Z</time>
</trkpt>
<trkpt lat="22.2362006" lon="113.8703623">
<ele>212.985</ele>
<time>2020-10-17T07:40:00.999Z</time>
</trkpt>
<trkpt lat="22.2362006" lon="113.8703623">
<ele>212.885</ele>
<time>2020-10-17T07:40:01.099Z</time>
</trkpt>
<trkpt lat="22.2362888" lon="113.8703884">
<ele>212.745</ele>
<time>2020-10-17T07:40:34.426Z</time>
</trkpt>
<trkpt lat="22.2363819" lon="113.8703743">
<ele>212.579</ele>
<time>2020-10-17T07:40:41.999Z</time>
</trkpt>
<trkpt lat="22.2363819" lon="113.8703743">
<ele>212.328</ele>
<time>2020-10-17T07:40:47.999Z</time>
</trkpt>
<trkpt lat="22.2363819" lon="113.8703743">
<ele>212.106</ele>
<time>2020-10-17T07:41:01.870Z</time>
</trkpt>
<trkpt lat="22.2364845" lon="113.8703693">
<ele>212.023</ele>
<time>2020-10-17T07:41:16.999Z</time>
</trkpt>
<trkpt lat="22.2364845" lon="113.8703693">
<ele>211.990</ele>
<time>2020-10-17T07:41:20.999Z</time>
</trkpt>
<trkpt lat="22.2364845" lon="113.8703693">
<ele>211.906</ele>
<time>2020-10-17T07:41:42.999Z</time>
</trkpt>
<trkpt lat="22.2364845" lon="113.8703693">
<ele>211.801</ele>
<time>2020-10-17T07:42:14.455Z</time>
</trkpt>
<trkpt lat="22.2364785" lon="113.8704971">
<ele>211.731</ele>
<time>2020-10-17T07:42:30.999Z</time>
</trkpt>
<trkpt lat="22.2364785" lon="113.8704971">
<ele>211.661</ele>
<time>2020-10-17T07:42:37.999Z</time>
</trkpt>
<trkpt lat="22.2364785" lon="113.8704971">
<ele>211.563</ele>
<time>2020-10-17T07:44:49.455Z</time>
</trkpt>
<trkpt lat="22.2364785" lon="113.8704971">
<ele>211.414</ele>
<time>2020-10-17T07:45:15.999Z</time>
</trkpt>
<trkpt lat="22.2364785" lon="113.8704971">
<ele>211.374</ele>
<time>2020-10-17T07:45:16.099Z</time>
</trkpt>
<trkpt lat="22.2364870" lon="113.8703889">
<ele>211.309</ele>
<time>2020-10-17T07:46:03.649Z</time>
</trkpt>
<trkpt lat="22.2363893" lon="113.8703715">
<ele>211.312</ele>
<time>2020-10-17T07:46:13.290Z</time>
</trkpt>
<trkpt lat="22.2362939" lon="113.8703314">
<ele>211.631</ele>
<time>2020-10-17T07:46:22.231Z</time>
</trkpt>
<trkpt lat="22.2362046" lon="113.8702729">
<ele>211.653</ele>
<time>2020-10-17T07:46:31.876Z</time>
</trkpt>
<trkpt lat="22.2361198" lon="113.8702071">
<ele>211.713</ele>
<time>2020-10-17T07:46:43.498Z</time>
</trkpt>
<trkpt lat="22.2360358" lon="113.8701726">
<ele>211.883</ele>
<time>2020-10-17T07:46:53.539Z</time>
</trkpt>
<trkpt lat="22.2359448" lon="113.8701280">
<ele>212.156</ele>
<time>2020-10-17T07:47:04.728Z</time>
</trkpt>
<trkpt lat="22.2358541" lon="113.8701262">
<ele>212.447</ele>
<time>2020-10-17T07:47:17.711Z</time>
</trkpt>
<trkpt lat="22.2357649" lon="113.8701615">
<ele>212.619</ele>
<time>2020-10-17T07:47:33.184Z</time>
</trkpt>
<trkpt lat="22.2356813" lon="113.8701974">
<ele>212.656</ele>
<time>2020-10-17T07:47:47.875Z</time>
</trkpt>
<trkpt lat="22.2355922" lon="113.8702221">
<ele>212.594</ele>
<time>2020-10-17T07:48:02.874Z</time>
</trkpt>
<trkpt lat="22.2355020" lon="113.8702149">
<ele>212.469</ele>
<time>2020-10-17T07:48:17.639Z</time>
</trkpt>
<trkpt lat="22.2355929" lon="113.8701775">
<ele>212.381</ele>
<time>2020-10-17T07:48:33.503Z</time>
</trkpt>
<trkpt lat="22.2356840" lon="113.8701957">
<ele>212.382</ele>
<time>2020-10-17T07:48:48.605Z</time>
</trkpt>
<trkpt lat="22.2357590" lon="113.8701406">
<ele>212.462</ele>
<time>2020-10-17T07:48:59.559Z</time>
</trkpt>
<trkpt lat="22.2358517" lon="113.8701468">
<ele>212.552</ele>
<time>2020-10-17T07:49:11.631Z</time>
</trkpt>
<trkpt lat="22.2359415" lon="113.8701322">
<ele>212.607</ele>
<time>2020-10-17T07:49:23.999Z</time>
</trkpt>
<trkpt lat="22.2359415" lon="113.8701322">
<ele>212.596</ele>
<time>2020-10-17T07:49:31.999Z</time>
</trkpt>
<trkpt lat="22.2359415" lon="113.8701322">
<ele>212.514</ele>
<time>2020-10-17T07:50:00.989Z</time>
</trkpt>
<trkpt lat="22.2360427" lon="113.8701901">
<ele>212.416</ele>
<time>2020-10-17T07:50:15.096Z</time>
</trkpt>
<trkpt lat="22.2361148" lon="113.8702587">
<ele>212.362</ele>
<time>2020-10-17T07:50:23.041Z</time>
</trkpt>
<trkpt lat="22.2361899" lon="113.8703272">
<ele>212.355</ele>
<time>2020-10-17T07:50:31.019Z</time>
</trkpt>
<trkpt lat="22.2362798" lon="113.8703556">
<ele>212.296</ele>
<time>2020-10-17T07:50:38.306Z</time>
</trkpt>
<trkpt lat="22.2363751" lon="113.8703705">
<ele>212.069</ele>
<time>2020-10-17T07:50:45.522Z</time>
</trkpt>
<trkpt lat="22.2364586" lon="113.8704096">
<ele>211.748</ele>
<time>2020-10-17T07:50:51.999Z</time>
</trkpt>
<trkpt lat="22.2364586" lon="113.8704096">
<ele>211.521</ele>
<time>2020-10-17T07:50:57.999Z</time>
</trkpt>
<trkpt lat="22.2364586" lon="113.8704096">
<ele>211.446</ele>
<time>2020-10-17T07:51:01.359Z</time>
</trkpt>
<trkpt lat="22.2364586" lon="113.8704096">
<ele>211.371</ele>
<time>2020-10-17T07:51:35.999Z</time>
</trkpt>
<trkpt lat="22.2364586" lon="113.8704096">
<ele>211.293</ele>
<time>2020-10-17T07:51:36.099Z</time>
</trkpt>
<trkpt lat="22.2364586" lon="113.8704096">
<ele>211.155</ele>
<time>2020-10-17T07:51:39.999Z</time>
</trkpt>
<trkpt lat="22.2364586" lon="113.8704096">
<ele>211.102</ele>
<time>2020-10-17T07:52:06.316Z</time>
</trkpt>
<trkpt lat="22.2365509" lon="113.8703508">
<ele>211.031</ele>
<time>2020-10-17T07:53:13.999Z</time>
</trkpt>
<trkpt lat="22.2365509" lon="113.8703508">
<ele>210.939</ele>
<time>2020-10-17T07:53:21.999Z</time>
</trkpt>
<trkpt lat="22.2365509" lon="113.8703508">
<ele>210.837</ele>
<time>2020-10-17T07:53:22.099Z</time>
</trkpt>
<trkpt lat="22.2366621" lon="113.8703346">
<ele>210.758</ele>
<time>2020-10-17T07:53:36.362Z</time>
</trkpt>
<trkpt lat="22.2367554" lon="113.8703387">
<ele>210.741</ele>
<time>2020-10-17T07:53:44.214Z</time>
</trkpt>
<trkpt lat="22.2368489" lon="113.8703068">
<ele>210.766</ele>
<time>2020-10-17T07:53:51.621Z</time>
</trkpt>
<trkpt lat="22.2369341" lon="113.8702714">
<ele>210.675</ele>
<time>2020-10-17T07:53:58.496Z</time>
</trkpt>
<trkpt lat="22.2370185" lon="113.8702188">
<ele>210.372</ele>
<time>2020-10-17T07:54:05.990Z</time>
</trkpt>
<trkpt lat="22.2371162" lon="113.8702139">
<ele>209.998</ele>
<time>2020-10-17T07:54:13.641Z</time>
</trkpt>
<trkpt lat="22.2372128" lon="113.8701911">
<ele>209.700</ele>
<time>2020-10-17T07:54:21.848Z</time>
</trkpt>
<trkpt lat="22.2372943" lon="113.8701429">
<ele>209.351</ele>
<time>2020-10-17T07:54:30.156Z</time>
</trkpt>
<trkpt lat="22.2373832" lon="113.8701026">
<ele>208.679</ele>
<time>2020-10-17T07:54:38.820Z</time>
</trkpt>
<trkpt lat="22.2374788" lon="113.8701061">
<ele>207.701</ele>
<time>2020-10-17T07:54:47.037Z</time>
</trkpt>
<trkpt lat="22.2375657" lon="113.8701630">
<ele>206.859</ele>
<time>2020-10-17T07:54:56.104Z</time>
</trkpt>
<trkpt lat="22.2376604" lon="113.8701384">
<ele>206.533</ele>
<time>2020-10-17T07:55:05.620Z</time>
</trkpt>
<trkpt lat="22.2377509" lon="113.8701465">
<ele>207.219</ele>
<time>2020-10-17T07:55:14.205Z</time>
</trkpt>
<trkpt lat="22.2378429" lon="113.8701439">
<ele>209.064</ele>
<time>2020-10-17T07:55:21.854Z</time>
</trkpt>
<trkpt lat="22.2379401" lon="113.8701513">
<ele>211.241</ele>
<time>2020-10-17T07:55:30.122Z</time>
</trkpt>
<trkpt lat="22.2380386" lon="113.8701716">
<ele>212.816</ele>
<time>2020-10-17T07:55:38.304Z</time>
</trkpt>
<trkpt lat="22.2381352" lon="113.8701823">
<ele>213.493</ele>
<time>2020-10-17T07:55:44.999Z</time>
</trkpt>
<trkpt lat="22.2381352" lon="113.8701823">
<ele>213.442</ele>
<time>2020-10-17T07:55:48.999Z</time>
</trkpt>
<trkpt lat="22.2381352" lon="113.8701823">
<ele>213.189</ele>
<time>2020-10-17T07:55:49.099Z</time>
</trkpt>
<trkpt lat="22.2382374" lon="113.8701714">
<ele>213.114</ele>
<time>2020-10-17T07:56:04.624Z</time>
</trkpt>
<trkpt lat="22.2383317" lon="113.8701654">
<ele>212.932</ele>
<time>2020-10-17T07:56:14.517Z</time>
</trkpt>
<trkpt lat="22.2383993" lon="113.8700983">
<ele>212.094</ele>
<time>2020-10-17T07:56:24.999Z</time>
</trkpt>
<trkpt lat="22.2383993" lon="113.8700983">
<ele>210.802</ele>
<time>2020-10-17T07:56:32.999Z</time>
</trkpt>
<trkpt lat="22.2383993" lon="113.8700983">
<ele>209.938</ele>
<time>2020-10-17T07:56:44.838Z</time>
</trkpt>
<trkpt lat="22.2384940" lon="113.8700289">
<ele>209.895</ele>
<time>2020-10-17T07:57:04.485Z</time>
</trkpt>
<trkpt lat="22.2385840" lon="113.8700771">
<ele>209.425</ele>
<time>2020-10-17T07:57:18.054Z</time>
</trkpt>
<trkpt lat="22.2386384" lon="113.8701547">
<ele>207.580</ele>
<time>2020-10-17T07:57:29.840Z</time>
</trkpt>
<trkpt lat="22.2386771" lon="113.8702539">
<ele>205.727</ele>
<time>2020-10-17T07:57:42.563Z</time>
</trkpt>
<trkpt lat="22.2387075" lon="113.8703496">
<ele>205.355</ele>
<time>2020-10-17T07:57:54.660Z</time>
</trkpt>
<trkpt lat="22.2387411" lon="113.8704402">
<ele>206.099</ele>
<time>2020-10-17T07:58:06.183Z</time>
</trkpt>
<trkpt lat="22.2388158" lon="113.8705100">
<ele>207.047</ele>
<time>2020-10-17T07:58:18.387Z</time>
</trkpt>
<trkpt lat="22.2389128" lon="113.8705189">
<ele>207.648</ele>
<time>2020-10-17T07:58:31.614Z</time>
</trkpt>
<trkpt lat="22.2390012" lon="113.8704951">
<ele>207.706</ele>
<time>2020-10-17T07:58:43.998Z</time>
</trkpt>
<trkpt lat="22.2390012" lon="113.8704951">
<ele>207.353</ele>
<time>2020-10-17T07:58:48.998Z</time>
</trkpt>
<trkpt lat="22.2390012" lon="113.8704951">
<ele>206.999</ele>
<time>2020-10-17T08:00:02.355Z</time>
</trkpt>
<trkpt lat="22.2390960" lon="113.8703982">
<ele>206.998</ele>
<time>2020-10-17T08:00:23.655Z</time>
</trkpt>
<trkpt lat="22.2391792" lon="113.8703333">
<ele>206.340</ele>
<time>2020-10-17T08:00:31.252Z</time>
</trkpt>
<trkpt lat="22.2392356" lon="113.8702574">
<ele>204.341</ele>
<time>2020-10-17T08:00:37.422Z</time>
</trkpt>
<trkpt lat="22.2392892" lon="113.8701676">
<ele>201.823</ele>
<time>2020-10-17T08:00:44.415Z</time>
</trkpt>
<trkpt lat="22.2393434" lon="113.8700789">
<ele>199.742</ele>
<time>2020-10-17T08:00:51.824Z</time>
</trkpt>
<trkpt lat="22.2394226" lon="113.8700329">
<ele>198.195</ele>
<time>2020-10-17T08:00:59.632Z</time>
</trkpt>
<trkpt lat="22.2395082" lon="113.8700035">
<ele>196.941</ele>
<time>2020-10-17T08:01:08.276Z</time>
</trkpt>
<trkpt lat="22.2396007" lon="113.8699876">
<ele>195.600</ele>
<time>2020-10-17T08:01:17.759Z</time>
</trkpt>
<trkpt lat="22.2396863" lon="113.8699577">
<ele>194.217</ele>
<time>2020-10-17T08:01:26.123Z</time>
</trkpt>
<trkpt lat="22.2397833" lon="113.8699235">
<ele>193.118</ele>
<time>2020-10-17T08:01:34.510Z</time>
</trkpt>
<trkpt lat="22.2398207" lon="113.8698321">
<ele>192.344</ele>
<time>2020-10-17T08:01:41.394Z</time>
</trkpt>
<trkpt lat="22.2398683" lon="113.8697481">
<ele>191.715</ele>
<time>2020-10-17T08:01:47.173Z</time>
</trkpt>
<trkpt lat="22.2398385" lon="113.8696411">
<ele>191.173</ele>
<time>2020-10-17T08:01:54.500Z</time>
</trkpt>
<trkpt lat="22.2398768" lon="113.8695496">
<ele>190.791</ele>
<time>2020-10-17T08:02:03.201Z</time>
</trkpt>
<trkpt lat="22.2399556" lon="113.8694975">
<ele>190.449</ele>
<time>2020-10-17T08:02:13.998Z</time>
</trkpt>
<trkpt lat="22.2399556" lon="113.8694975">
<ele>190.003</ele>
<time>2020-10-17T08:02:20.998Z</time>
</trkpt>
<trkpt lat="22.2399556" lon="113.8694975">
<ele>189.647</ele>
<time>2020-10-17T08:09:59.084Z</time>
</trkpt>
<trkpt lat="22.2400309" lon="113.8696274">
<ele>189.641</ele>
<time>2020-10-17T08:10:27.222Z</time>
</trkpt>
<trkpt lat="22.2401063" lon="113.8696848">
<ele>190.376</ele>
<time>2020-10-17T08:10:39.575Z</time>
</trkpt>
<trkpt lat="22.2401628" lon="113.8697660">
<ele>192.158</ele>
<time>2020-10-17T08:10:51.012Z</time>
</trkpt>
<trkpt lat="22.2402519" lon="113.8698130">
<ele>194.419</ele>
<time>2020-10-17T08:11:02.085Z</time>
</trkpt>
<trkpt lat="22.2403474" lon="113.8698100">
<ele>196.429</ele>
<time>2020-10-17T08:11:11.605Z</time>
</trkpt>
<trkpt lat="22.2404386" lon="113.8698272">
<ele>197.961</ele>
<time>2020-10-17T08:11:21.058Z</time>
</trkpt>
<trkpt lat="22.2405298" lon="113.8698751">
<ele>198.820</ele>
<time>2020-10-17T08:11:32.090Z</time>
</trkpt>
<trkpt lat="22.2405958" lon="113.8699455">
<ele>199.112</ele>
<time>2020-10-17T08:11:42.397Z</time>
</trkpt>
<trkpt lat="22.2406568" lon="113.8700310">
<ele>199.237</ele>
<time>2020-10-17T08:11:52.787Z</time>
</trkpt>
<trkpt lat="22.2407326" lon="113.8700897">
<ele>199.405</ele>
<time>2020-10-17T08:12:03.235Z</time>
</trkpt>
<trkpt lat="22.2408296" lon="113.8700939">
<ele>199.663</ele>
<time>2020-10-17T08:12:14.999Z</time>
</trkpt>
<trkpt lat="22.2408296" lon="113.8700939">
<ele>199.909</ele>
<time>2020-10-17T08:12:22.999Z</time>
</trkpt>
<trkpt lat="22.2408296" lon="113.8700939">
<ele>199.967</ele>
<time>2020-10-17T08:12:29.528Z</time>
</trkpt>
<trkpt lat="22.2409947" lon="113.8700631">
<ele>199.858</ele>
<time>2020-10-17T08:12:50.246Z</time>
</trkpt>
<trkpt lat="22.2410317" lon="113.8699704">
<ele>199.748</ele>
<time>2020-10-17T08:12:57.348Z</time>
</trkpt>
<trkpt lat="22.2410245" lon="113.8698733">
<ele>199.780</ele>
<time>2020-10-17T08:13:03.999Z</time>
</trkpt>
<trkpt lat="22.2410245" lon="113.8698733">
<ele>199.896</ele>
<time>2020-10-17T08:13:10.999Z</time>
</trkpt>
<trkpt lat="22.2410245" lon="113.8698733">
<ele>199.912</ele>
<time>2020-10-17T08:13:11.099Z</time>
</trkpt>
<trkpt lat="22.2410245" lon="113.8698733">
<ele>199.700</ele>
<time>2020-10-17T08:13:18.999Z</time>
</trkpt>
<trkpt lat="22.2410245" lon="113.8698733">
<ele>199.639</ele>
<time>2020-10-17T08:13:19.099Z</time>
</trkpt>
<trkpt lat="22.2410761" lon="113.8697860">
<ele>199.586</ele>
<time>2020-10-17T08:13:19.999Z</time>
</trkpt>
<trkpt lat="22.2410761" lon="113.8697860">
<ele>199.507</ele>
<time>2020-10-17T08:13:21.999Z</time>
</trkpt>
<trkpt lat="22.2410761" lon="113.8697860">
<ele>199.409</ele>
<time>2020-10-17T08:13:22.099Z</time>
</trkpt>
<trkpt lat="22.2410761" lon="113.8697860">
<ele>199.274</ele>
<time>2020-10-17T08:13:34.999Z</time>
</trkpt>
<trkpt lat="22.2410761" lon="113.8697860">
<ele>199.236</ele>
<time>2020-10-17T08:13:35.099Z</time>
</trkpt>
<trkpt lat="22.2411344" lon="113.8696691">
<ele>199.168</ele>
<time>2020-10-17T08:14:08.451Z</time>
</trkpt>
<trkpt lat="22.2411817" lon="113.8695866">
<ele>198.721</ele>
<time>2020-10-17T08:14:20.499Z</time>
</trkpt>
<trkpt lat="22.2412522" lon="113.8695197">
<ele>197.465</ele>
<time>2020-10-17T08:14:31.062Z</time>
</trkpt>
<trkpt lat="22.2413490" lon="113.8695276">
<ele>195.650</ele>
<time>2020-10-17T08:14:43.084Z</time>
</trkpt>
<trkpt lat="22.2414392" lon="113.8695370">
<ele>194.061</ele>
<time>2020-10-17T08:14:54.818Z</time>
</trkpt>
<trkpt lat="22.2415309" lon="113.8695280">
<ele>193.165</ele>
<time>2020-10-17T08:15:06.462Z</time>
</trkpt>
<trkpt lat="22.2416208" lon="113.8695128">
<ele>192.881</ele>
<time>2020-10-17T08:15:14.999Z</time>
</trkpt>
<trkpt lat="22.2416208" lon="113.8695128">
<ele>192.843</ele>
<time>2020-10-17T08:15:19.999Z</time>
</trkpt>
<trkpt lat="22.2416208" lon="113.8695128">
<ele>192.811</ele>
<time>2020-10-17T08:16:05.444Z</time>
</trkpt>
<trkpt lat="22.2417814" lon="113.8695637">
<ele>192.737</ele>
<time>2020-10-17T08:16:28.483Z</time>
</trkpt>
<trkpt lat="22.2418616" lon="113.8696202">
<ele>192.468</ele>
<time>2020-10-17T08:16:36.405Z</time>
</trkpt>
<trkpt lat="22.2419547" lon="113.8696480">
<ele>191.156</ele>
<time>2020-10-17T08:16:43.496Z</time>
</trkpt>
<trkpt lat="22.2420554" lon="113.8696419">
<ele>190.199</ele>
<time>2020-10-17T08:16:50.026Z</time>
</trkpt>
<trkpt lat="22.2421600" lon="113.8696446">
<ele>188.923</ele>
<time>2020-10-17T08:16:57.910Z</time>
</trkpt>
<trkpt lat="22.2422573" lon="113.8696514">
<ele>189.055</ele>
<time>2020-10-17T08:17:06.041Z</time>
</trkpt>
<trkpt lat="22.2423539" lon="113.8697001">
<ele>189.762</ele>
<time>2020-10-17T08:17:17.367Z</time>
</trkpt>
<trkpt lat="22.2424327" lon="113.8697545">
<ele>190.849</ele>
<time>2020-10-17T08:17:25.711Z</time>
</trkpt>
<trkpt lat="22.2425271" lon="113.8697786">
<ele>191.651</ele>
<time>2020-10-17T08:17:33.999Z</time>
</trkpt>
<trkpt lat="22.2425271" lon="113.8697786">
<ele>191.791</ele>
<time>2020-10-17T08:17:41.999Z</time>
</trkpt>
<trkpt lat="22.2425271" lon="113.8697786">
<ele>191.597</ele>
<time>2020-10-17T08:17:42.099Z</time>
</trkpt>
<trkpt lat="22.2426293" lon="113.8698153">
<ele>191.458</ele>
<time>2020-10-17T08:19:13.999Z</time>
</trkpt>
<trkpt lat="22.2426293" lon="113.8698153">
<ele>191.459</ele>
<time>2020-10-17T08:19:19.999Z</time>
</trkpt>
<trkpt lat="22.2426293" lon="113.8698153">
<ele>191.472</ele>
<time>2020-10-17T08:19:32.559Z</time>
</trkpt>
<trkpt lat="22.2426293" lon="113.8698153">
<ele>191.292</ele>
<time>2020-10-17T08:19:39.999Z</time>
</trkpt>
<trkpt lat="22.2426293" lon="113.8698153">
<ele>191.225</ele>
<time>2020-10-17T08:19:40.099Z</time>
</trkpt>
<trkpt lat="22.2427168" lon="113.8698379">
<ele>191.120</ele>
<time>2020-10-17T08:20:22.595Z</time>
</trkpt>
<trkpt lat="22.2428208" lon="113.8698388">
<ele>191.111</ele>
<time>2020-10-17T08:20:32.499Z</time>
</trkpt>
<trkpt lat="22.2428875" lon="113.8697570">
<ele>191.179</ele>
<time>2020-10-17T08:20:41.040Z</time>
</trkpt>
<trkpt lat="22.2429813" lon="113.8697254">
<ele>190.840</ele>
<time>2020-10-17T08:20:48.999Z</time>
</trkpt>
<trkpt lat="22.2429813" lon="113.8697254">
<ele>189.778</ele>
<time>2020-10-17T08:20:53.999Z</time>
</trkpt>
<trkpt lat="22.2429813" lon="113.8697254">
<ele>188.834</ele>
<time>2020-10-17T08:21:26.591Z</time>
</trkpt>
<trkpt lat="22.2430655" lon="113.8696402">
<ele>189.171</ele>
<time>2020-10-17T08:21:45.521Z</time>
</trkpt>
<trkpt lat="22.2431718" lon="113.8696098">
<ele>188.743</ele>
<time>2020-10-17T08:21:53.923Z</time>
</trkpt>
<trkpt lat="22.2432705" lon="113.8695865">
<ele>186.843</ele>
<time>2020-10-17T08:21:59.711Z</time>
</trkpt>
<trkpt lat="22.2433631" lon="113.8695423">
<ele>183.427</ele>
<time>2020-10-17T08:22:05.451Z</time>
</trkpt>
<trkpt lat="22.2434543" lon="113.8695139">
<ele>182.419</ele>
<time>2020-10-17T08:22:11.459Z</time>
</trkpt>
<trkpt lat="22.2435287" lon="113.8694508">
<ele>180.597</ele>
<time>2020-10-17T08:22:18.529Z</time>
</trkpt>
<trkpt lat="22.2435887" lon="113.8693743">
<ele>178.274</ele>
<time>2020-10-17T08:22:26.407Z</time>
</trkpt>
<trkpt lat="22.2436488" lon="113.8692876">
<ele>176.215</ele>
<time>2020-10-17T08:22:35.148Z</time>
</trkpt>
<trkpt lat="22.2437490" lon="113.8692833">
<ele>174.703</ele>
<time>2020-10-17T08:22:43.641Z</time>
</trkpt>
<trkpt lat="22.2438293" lon="113.8693309">
<ele>173.946</ele>
<time>2020-10-17T08:22:50.225Z</time>
</trkpt>
<trkpt lat="22.2439207" lon="113.8693621">
<ele>173.820</ele>
<time>2020-10-17T08:22:56.379Z</time>
</trkpt>
<trkpt lat="22.2440119" lon="113.8693579">
<ele>173.941</ele>
<time>2020-10-17T08:23:02.430Z</time>
</trkpt>
<trkpt lat="22.2441220" lon="113.8693537">
<ele>173.982</ele>
<time>2020-10-17T08:23:09.878Z</time>
</trkpt>
<trkpt lat="22.2442225" lon="113.8693797">
<ele>173.846</ele>
<time>2020-10-17T08:23:16.232Z</time>
</trkpt>
<trkpt lat="22.2443289" lon="113.8693875">
<ele>173.656</ele>
<time>2020-10-17T08:23:22.950Z</time>
</trkpt>
<trkpt lat="22.2444092" lon="113.8694433">
<ele>173.536</ele>
<time>2020-10-17T08:23:29.828Z</time>
</trkpt>
<trkpt lat="22.2444975" lon="113.8694988">
<ele>173.461</ele>
<time>2020-10-17T08:23:38.566Z</time>
</trkpt>
<trkpt lat="22.2445878" lon="113.8695331">
<ele>173.260</ele>
<time>2020-10-17T08:23:47.695Z</time>
</trkpt>
<trkpt lat="22.2446789" lon="113.8695463">
<ele>172.879</ele>
<time>2020-10-17T08:23:55.686Z</time>
</trkpt>
<trkpt lat="22.2447710" lon="113.8695130">
<ele>172.531</ele>
<time>2020-10-17T08:24:05.184Z</time>
</trkpt>
<trkpt lat="22.2448559" lon="113.8694645">
<ele>172.158</ele>
<time>2020-10-17T08:24:15.134Z</time>
</trkpt>
<trkpt lat="22.2449577" lon="113.8694726">
<ele>171.569</ele>
<time>2020-10-17T08:24:24.242Z</time>
</trkpt>
<trkpt lat="22.2450075" lon="113.8693860">
<ele>170.989</ele>
<time>2020-10-17T08:24:32.087Z</time>
</trkpt>
<trkpt lat="22.2450782" lon="113.8693240">
<ele>170.634</ele>
<time>2020-10-17T08:24:40.079Z</time>
</trkpt>
<trkpt lat="22.2451748" lon="113.8693267">
<ele>170.382</ele>
<time>2020-10-17T08:24:46.688Z</time>
</trkpt>
<trkpt lat="22.2452686" lon="113.8693296">
<ele>170.159</ele>
<time>2020-10-17T08:24:51.732Z</time>
</trkpt>
<trkpt lat="22.2452555" lon="113.8692260">
<ele>170.013</ele>
<time>2020-10-17T08:24:57.846Z</time>
</trkpt>
<trkpt lat="22.2453243" lon="113.8691571">
<ele>170.066</ele>
<time>2020-10-17T08:25:07.363Z</time>
</trkpt>
<trkpt lat="22.2454072" lon="113.8691038">
<ele>170.326</ele>
<time>2020-10-17T08:25:17.163Z</time>
</trkpt>
<trkpt lat="22.2454727" lon="113.8690314">
<ele>170.490</ele>
<time>2020-10-17T08:25:24.999Z</time>
</trkpt>
<trkpt lat="22.2454727" lon="113.8690314">
<ele>170.342</ele>
<time>2020-10-17T08:25:38.999Z</time>
</trkpt>
<trkpt lat="22.2454727" lon="113.8690314">
<ele>170.108</ele>
<time>2020-10-17T08:25:39.099Z</time>
</trkpt>
<trkpt lat="22.2455504" lon="113.8689819">
<ele>170.070</ele>
<time>2020-10-17T08:26:06.239Z</time>
</trkpt>
<trkpt lat="22.2455047" lon="113.8688900">
<ele>169.722</ele>
<time>2020-10-17T08:26:13.374Z</time>
</trkpt>
<trkpt lat="22.2454544" lon="113.8688085">
<ele>168.610</ele>
<time>2020-10-17T08:26:16.999Z</time>
</trkpt>
<trkpt lat="22.2454544" lon="113.8688085">
<ele>167.292</ele>
<time>2020-10-17T08:26:23.999Z</time>
</trkpt>
<trkpt lat="22.2454544" lon="113.8688085">
<ele>166.595</ele>
<time>2020-10-17T08:26:24.099Z</time>
</trkpt>
<trkpt lat="22.2455091" lon="113.8687170">
<ele>166.589</ele>
<time>2020-10-17T08:27:02.041Z</time>
</trkpt>
<trkpt lat="22.2455559" lon="113.8686302">
<ele>166.584</ele>
<time>2020-10-17T08:27:10.302Z</time>
</trkpt>
<trkpt lat="22.2456092" lon="113.8685461">
<ele>165.452</ele>
<time>2020-10-17T08:27:16.999Z</time>
</trkpt>
<trkpt lat="22.2456092" lon="113.8685461">
<ele>163.178</ele>
<time>2020-10-17T08:27:23.999Z</time>
</trkpt>
<trkpt lat="22.2456092" lon="113.8685461">
<ele>161.498</ele>
<time>2020-10-17T08:27:25.837Z</time>
</trkpt>
<trkpt lat="22.2456298" lon="113.8684494">
<ele>161.488</ele>
<time>2020-10-17T08:27:37.976Z</time>
</trkpt>
<trkpt lat="22.2456102" lon="113.8683524">
<ele>161.069</ele>
<time>2020-10-17T08:27:45.336Z</time>
</trkpt>
<trkpt lat="22.2457018" lon="113.8683552">
<ele>158.504</ele>
<time>2020-10-17T08:27:53.613Z</time>
</trkpt>
<trkpt lat="22.2456689" lon="113.8682603">
<ele>155.366</ele>
<time>2020-10-17T08:28:02.016Z</time>
</trkpt>
<trkpt lat="22.2457539" lon="113.8682062">
<ele>153.759</ele>
<time>2020-10-17T08:28:09.806Z</time>
</trkpt>
<trkpt lat="22.2458361" lon="113.8681517">
<ele>153.707</ele>
<time>2020-10-17T08:28:17.168Z</time>
</trkpt>
<trkpt lat="22.2458590" lon="113.8680514">
<ele>153.454</ele>
<time>2020-10-17T08:28:23.999Z</time>
</trkpt>
<trkpt lat="22.2458590" lon="113.8680514">
<ele>153.130</ele>
<time>2020-10-17T08:28:31.999Z</time>
</trkpt>
<trkpt lat="22.2458590" lon="113.8680514">
<ele>152.963</ele>
<time>2020-10-17T08:28:59.155Z</time>
</trkpt>
<trkpt lat="22.2458942" lon="113.8679400">
<ele>152.955</ele>
<time>2020-10-17T08:29:21.690Z</time>
</trkpt>
<trkpt lat="22.2459373" lon="113.8678540">
<ele>151.172</ele>
<time>2020-10-17T08:29:32.011Z</time>
</trkpt>
<trkpt lat="22.2459391" lon="113.8677551">
<ele>146.229</ele>
<time>2020-10-17T08:29:40.322Z</time>
</trkpt>
<trkpt lat="22.2459661" lon="113.8676510">
<ele>138.396</ele>
<time>2020-10-17T08:29:49.299Z</time>
</trkpt>
<trkpt lat="22.2460248" lon="113.8675741">
<ele>137.484</ele>
<time>2020-10-17T08:29:57.512Z</time>
</trkpt>
<trkpt lat="22.2461061" lon="113.8675178">
<ele>136.746</ele>
<time>2020-10-17T08:30:05.989Z</time>
</trkpt>
<trkpt lat="22.2461488" lon="113.8674221">
<ele>135.132</ele>
<time>2020-10-17T08:30:15.027Z</time>
</trkpt>
<trkpt lat="22.2461650" lon="113.8673229">
<ele>132.874</ele>
<time>2020-10-17T08:30:23.312Z</time>
</trkpt>
<trkpt lat="22.2461862" lon="113.8672279">
<ele>130.470</ele>
<time>2020-10-17T08:30:31.241Z</time>
</trkpt>
<trkpt lat="22.2462423" lon="113.8671510">
<ele>128.315</ele>
<time>2020-10-17T08:30:39.983Z</time>
</trkpt>
<trkpt lat="22.2463254" lon="113.8671131">
<ele>126.311</ele>
<time>2020-10-17T08:30:51.970Z</time>
</trkpt>
<trkpt lat="22.2463994" lon="113.8670532">
<ele>123.017</ele>
<time>2020-10-17T08:31:04.665Z</time>
</trkpt>
<trkpt lat="22.2464194" lon="113.8669563">
<ele>121.160</ele>
<time>2020-10-17T08:31:14.999Z</time>
</trkpt>
<trkpt lat="22.2464194" lon="113.8669563">
<ele>120.250</ele>
<time>2020-10-17T08:31:22.999Z</time>
</trkpt>
<trkpt lat="22.2464194" lon="113.8669563">
<ele>119.817</ele>
<time>2020-10-17T08:31:23.099Z</time>
</trkpt>
<trkpt lat="22.2464718" lon="113.8668751">
<ele>120.094</ele>
<time>2020-10-17T08:31:55.072Z</time>
</trkpt>
<trkpt lat="22.2465223" lon="113.8667857">
<ele>117.978</ele>
<time>2020-10-17T08:32:07.807Z</time>
</trkpt>
<trkpt lat="22.2465699" lon="113.8667020">
<ele>112.208</ele>
<time>2020-10-17T08:32:16.424Z</time>
</trkpt>
<trkpt lat="22.2466371" lon="113.8666249">
<ele>105.644</ele>
<time>2020-10-17T08:32:24.999Z</time>
</trkpt>
<trkpt lat="22.2466371" lon="113.8666249">
<ele>101.468</ele>
<time>2020-10-17T08:32:27.999Z</time>
</trkpt>
<trkpt lat="22.2466371" lon="113.8666249">
<ele>99.909</ele>
<time>2020-10-17T08:32:28.099Z</time>
</trkpt>
<trkpt lat="22.2467229" lon="113.8666639">
<ele>100.125</ele>
<time>2020-10-17T08:33:01.348Z</time>
</trkpt>
<trkpt lat="22.2467874" lon="113.8665872">
<ele>99.156</ele>
<time>2020-10-17T08:33:17.558Z</time>
</trkpt>
<trkpt lat="22.2467928" lon="113.8664777">
<ele>95.119</ele>
<time>2020-10-17T08:33:32.727Z</time>
</trkpt>
<trkpt lat="22.2468208" lon="113.8663797">
<ele>90.118</ele>
<time>2020-10-17T08:33:47.000Z</time>
</trkpt>
<trkpt lat="22.2468208" lon="113.8663797">
<ele>86.781</ele>
<time>2020-10-17T08:33:49.000Z</time>
</trkpt>
<trkpt lat="22.2468208" lon="113.8663797">
<ele>85.477</ele>
<time>2020-10-17T08:33:49.100Z</time>
</trkpt>
<trkpt lat="22.2468641" lon="113.8662868">
<ele>86.243</ele>
<time>2020-10-17T08:34:04.637Z</time>
</trkpt>
<trkpt lat="22.2469058" lon="113.8661986">
<ele>85.411</ele>
<time>2020-10-17T08:34:11.691Z</time>
</trkpt>
<trkpt lat="22.2469191" lon="113.8660951">
<ele>82.282</ele>
<time>2020-10-17T08:34:17.683Z</time>
</trkpt>
<trkpt lat="22.2468972" lon="113.8659866">
<ele>76.913</ele>
<time>2020-10-17T08:34:24.050Z</time>
</trkpt>
<trkpt lat="22.2469122" lon="113.8658815">
<ele>76.037</ele>
<time>2020-10-17T08:34:30.453Z</time>
</trkpt>
<trkpt lat="22.2469388" lon="113.8657834">
<ele>75.711</ele>
<time>2020-10-17T08:34:37.298Z</time>
</trkpt>
<trkpt lat="22.2469925" lon="113.8656994">
<ele>74.367</ele>
<time>2020-10-17T08:34:44.693Z</time>
</trkpt>
<trkpt lat="22.2470443" lon="113.8656186">
<ele>72.117</ele>
<time>2020-10-17T08:34:52.056Z</time>
</trkpt>
<trkpt lat="22.2470874" lon="113.8655271">
<ele>69.470</ele>
<time>2020-10-17T08:34:59.110Z</time>
</trkpt>
<trkpt lat="22.2471785" lon="113.8654677">
<ele>66.791</ele>
<time>2020-10-17T08:35:05.601Z</time>
</trkpt>
<trkpt lat="22.2472396" lon="113.8653756">
<ele>63.211</ele>
<time>2020-10-17T08:35:11.643Z</time>
</trkpt>
<trkpt lat="22.2473077" lon="113.8652990">
<ele>61.852</ele>
<time>2020-10-17T08:35:18.022Z</time>
</trkpt>
<trkpt lat="22.2472953" lon="113.8651998">
<ele>59.841</ele>
<time>2020-10-17T08:35:25.995Z</time>
</trkpt>
<trkpt lat="22.2473790" lon="113.8651370">
<ele>57.408</ele>
<time>2020-10-17T08:35:35.752Z</time>
</trkpt>
<trkpt lat="22.2474698" lon="113.8650765">
<ele>52.045</ele>
<time>2020-10-17T08:35:42.460Z</time>
</trkpt>
<trkpt lat="22.2475204" lon="113.8649794">
<ele>49.822</ele>
<time>2020-10-17T08:35:48.519Z</time>
</trkpt>
<trkpt lat="22.2475799" lon="113.8648997">
<ele>47.550</ele>
<time>2020-10-17T08:35:54.505Z</time>
</trkpt>
<trkpt lat="22.2476660" lon="113.8648687">
<ele>44.197</ele>
<time>2020-10-17T08:36:00.718Z</time>
</trkpt>
<trkpt lat="22.2477304" lon="113.8647759">
<ele>43.462</ele>
<time>2020-10-17T08:36:07.123Z</time>
</trkpt>
<trkpt lat="22.2477876" lon="113.8646930">
<ele>42.445</ele>
<time>2020-10-17T08:36:11.275Z</time>
</trkpt>
<trkpt lat="22.2478794" lon="113.8646396">
<ele>39.108</ele>
<time>2020-10-17T08:36:16.510Z</time>
</trkpt>
<trkpt lat="22.2479347" lon="113.8645596">
<ele>37.189</ele>
<time>2020-10-17T08:36:21.663Z</time>
</trkpt>
<trkpt lat="22.2479720" lon="113.8644688">
<ele>34.581</ele>
<time>2020-10-17T08:36:29.196Z</time>
</trkpt>
<trkpt lat="22.2480420" lon="113.8643961">
<ele>29.576</ele>
<time>2020-10-17T08:36:38.789Z</time>
</trkpt>
<trkpt lat="22.2481079" lon="113.8643199">
<ele>27.517</ele>
<time>2020-10-17T08:36:45.202Z</time>
</trkpt>
<trkpt lat="22.2481787" lon="113.8642567">
<ele>24.423</ele>
<time>2020-10-17T08:36:49.999Z</time>
</trkpt>
<trkpt lat="22.2481787" lon="113.8642567">
<ele>23.857</ele>
<time>2020-10-17T08:36:55.999Z</time>
</trkpt>
<trkpt lat="22.2481787" lon="113.8642567">
<ele>23.778</ele>
<time>2020-10-17T08:38:13.141Z</time>
</trkpt>
<trkpt lat="22.2481787" lon="113.8642567">
<ele>23.868</ele>
<time>2020-10-17T08:38:32.999Z</time>
</trkpt>
<trkpt lat="22.2481787" lon="113.8642567">
<ele>23.850</ele>
<time>2020-10-17T08:38:33.099Z</time>
</trkpt>
<trkpt lat="22.2481787" lon="113.8642567">
<ele>23.834</ele>
<time>2020-10-17T08:39:17.999Z</time>
</trkpt>
<trkpt lat="22.2481787" lon="113.8642567">
<ele>23.833</ele>
<time>2020-10-17T08:39:58.897Z</time>
</trkpt>
<trkpt lat="22.2481231" lon="113.8641781">
<ele>23.813</ele>
<time>2020-10-17T08:40:54.000Z</time>
</trkpt>
<trkpt lat="22.2481231" lon="113.8641781">
<ele>23.803</ele>
<time>2020-10-17T08:41:02.000Z</time>
</trkpt>
<trkpt lat="22.2481231" lon="113.8641781">
<ele>23.793</ele>
<time>2020-10-17T08:41:13.070Z</time>
</trkpt>
<trkpt lat="22.2481051" lon="113.8640423">
<ele>23.782</ele>
<time>2020-10-17T08:41:29.076Z</time>
</trkpt>
<trkpt lat="22.2480691" lon="113.8639488">
<ele>21.513</ele>
<time>2020-10-17T08:41:37.497Z</time>
</trkpt>
<trkpt lat="22.2480386" lon="113.8638532">
<ele>15.617</ele>
<time>2020-10-17T08:41:46.911Z</time>
</trkpt>
<trkpt lat="22.2479892" lon="113.8637672">
<ele>9.574</ele>
<time>2020-10-17T08:41:57.258Z</time>
</trkpt>
<trkpt lat="22.2479817" lon="113.8636645">
<ele>6.721</ele>
<time>2020-10-17T08:42:08.137Z</time>
</trkpt>
<trkpt lat="22.2479799" lon="113.8635663">
<ele>6.286</ele>
<time>2020-10-17T08:42:18.999Z</time>
</trkpt>
<trkpt lat="22.2479799" lon="113.8635663">
<ele>6.592</ele>
<time>2020-10-17T08:42:19.999Z</time>
</trkpt>
<trkpt lat="22.2479799" lon="113.8635663">
<ele>6.700</ele>
<time>2020-10-17T08:42:40.712Z</time>
</trkpt>
<trkpt lat="22.2479367" lon="113.8634808">
<ele>6.583</ele>
<time>2020-10-17T08:43:00.922Z</time>
</trkpt>
<trkpt lat="22.2478643" lon="113.8634207">
<ele>6.611</ele>
<time>2020-10-17T08:43:09.921Z</time>
</trkpt>
<trkpt lat="22.2477831" lon="113.8633597">
<ele>6.718</ele>
<time>2020-10-17T08:43:17.057Z</time>
</trkpt>
<trkpt lat="22.2477182" lon="113.8632829">
<ele>6.790</ele>
<time>2020-10-17T08:43:25.612Z</time>
</trkpt>
<trkpt lat="22.2476283" lon="113.8632399">
<ele>6.743</ele>
<time>2020-10-17T08:43:34.698Z</time>
</trkpt>
<trkpt lat="22.2475300" lon="113.8632166">
<ele>6.572</ele>
<time>2020-10-17T08:43:42.996Z</time>
</trkpt>
<trkpt lat="22.2475046" lon="113.8631172">
<ele>6.316</ele>
<time>2020-10-17T08:43:51.564Z</time>
</trkpt>
<trkpt lat="22.2474445" lon="113.8630425">
<ele>5.945</ele>
<time>2020-10-17T08:44:00.469Z</time>
</trkpt>
<trkpt lat="22.2473805" lon="113.8629643">
<ele>5.420</ele>
<time>2020-10-17T08:44:10.257Z</time>
</trkpt>
<trkpt lat="22.2473474" lon="113.8628669">
<ele>4.902</ele>
<time>2020-10-17T08:44:19.738Z</time>
</trkpt>
<trkpt lat="22.2473254" lon="113.8627651">
<ele>4.657</ele>
<time>2020-10-17T08:44:28.514Z</time>
</trkpt>
<trkpt lat="22.2472809" lon="113.8626732">
<ele>4.704</ele>
<time>2020-10-17T08:44:36.728Z</time>
</trkpt>
<trkpt lat="22.2472687" lon="113.8625706">
<ele>4.856</ele>
<time>2020-10-17T08:44:43.683Z</time>
</trkpt>
<trkpt lat="22.2472372" lon="113.8624793">
<ele>4.928</ele>
<time>2020-10-17T08:44:49.755Z</time>
</trkpt>
<trkpt lat="22.2472018" lon="113.8623889">
<ele>4.850</ele>
<time>2020-10-17T08:44:56.203Z</time>
</trkpt>
<trkpt lat="22.2471710" lon="113.8622855">
<ele>4.680</ele>
<time>2020-10-17T08:45:04.223Z</time>
</trkpt>
<trkpt lat="22.2471386" lon="113.8621930">
<ele>4.572</ele>
<time>2020-10-17T08:45:12.259Z</time>
</trkpt>
<trkpt lat="22.2470915" lon="113.8621036">
<ele>4.613</ele>
<time>2020-10-17T08:45:20.999Z</time>
</trkpt>
<trkpt lat="22.2470915" lon="113.8621036">
<ele>4.719</ele>
<time>2020-10-17T08:45:28.999Z</time>
</trkpt>
<trkpt lat="22.2470915" lon="113.8621036">
<ele>4.780</ele>
<time>2020-10-17T08:45:30.391Z</time>
</trkpt>
<trkpt lat="22.2471861" lon="113.8620557">
<ele>4.773</ele>
<time>2020-10-17T08:46:58.822Z</time>
</trkpt>
<trkpt lat="22.2472817" lon="113.8620340">
<ele>4.881</ele>
<time>2020-10-17T08:47:13.271Z</time>
</trkpt>
<trkpt lat="22.2472800" lon="113.8619354">
<ele>5.254</ele>
<time>2020-10-17T08:47:23.680Z</time>
</trkpt>
<trkpt lat="22.2472506" lon="113.8618387">
<ele>5.669</ele>
<time>2020-10-17T08:47:33.094Z</time>
</trkpt>
<trkpt lat="22.2472212" lon="113.8617425">
<ele>5.961</ele>
<time>2020-10-17T08:47:42.024Z</time>
</trkpt>
<trkpt lat="22.2472089" lon="113.8616446">
<ele>6.123</ele>
<time>2020-10-17T08:47:51.167Z</time>
</trkpt>
<trkpt lat="22.2471886" lon="113.8615501">
<ele>6.057</ele>
<time>2020-10-17T08:48:01.023Z</time>
</trkpt>
<trkpt lat="22.2471575" lon="113.8614563">
<ele>5.820</ele>
<time>2020-10-17T08:48:11.363Z</time>
</trkpt>
<trkpt lat="22.2471836" lon="113.8613580">
<ele>5.517</ele>
<time>2020-10-17T08:48:21.724Z</time>
</trkpt>
<trkpt lat="22.2472752" lon="113.8613301">
<ele>5.232</ele>
<time>2020-10-17T08:48:32.257Z</time>
</trkpt>
<trkpt lat="22.2473662" lon="113.8613338">
<ele>5.079</ele>
<time>2020-10-17T08:48:43.604Z</time>
</trkpt>
<trkpt lat="22.2474569" lon="113.8613205">
<ele>4.949</ele>
<time>2020-10-17T08:48:57.832Z</time>
</trkpt>
<trkpt lat="22.2475459" lon="113.8612963">
<ele>4.729</ele>
<time>2020-10-17T08:49:12.298Z</time>
</trkpt>
<trkpt lat="22.2476364" lon="113.8612841">
<ele>4.439</ele>
<time>2020-10-17T08:49:24.082Z</time>
</trkpt>
<trkpt lat="22.2477292" lon="113.8612688">
<ele>4.122</ele>
<time>2020-10-17T08:49:35.576Z</time>
</trkpt>
<trkpt lat="22.2478252" lon="113.8612451">
<ele>3.911</ele>
<time>2020-10-17T08:49:47.489Z</time>
</trkpt>
<trkpt lat="22.2479144" lon="113.8612210">
<ele>3.876</ele>
<time>2020-10-17T08:49:57.059Z</time>
</trkpt>
<trkpt lat="22.2480126" lon="113.8612191">
<ele>3.944</ele>
<time>2020-10-17T08:50:07.471Z</time>
</trkpt>
<trkpt lat="22.2481101" lon="113.8612004">
<ele>4.017</ele>
<time>2020-10-17T08:50:17.999Z</time>
</trkpt>
<trkpt lat="22.2481101" lon="113.8612004">
<ele>4.048</ele>
<time>2020-10-17T08:50:21.999Z</time>
</trkpt>
<trkpt lat="22.2481101" lon="113.8612004">
<ele>4.042</ele>
<time>2020-10-17T08:50:28.574Z</time>
</trkpt>
<trkpt lat="22.2482184" lon="113.8611705">
<ele>4.028</ele>
<time>2020-10-17T08:50:48.546Z</time>
</trkpt>
<trkpt lat="22.2483098" lon="113.8611525">
<ele>4.008</ele>
<time>2020-10-17T08:50:59.877Z</time>
</trkpt>
<trkpt lat="22.2484022" lon="113.8611580">
<ele>3.942</ele>
<time>2020-10-17T08:51:10.299Z</time>
</trkpt>
<trkpt lat="22.2484916" lon="113.8611482">
<ele>3.892</ele>
<time>2020-10-17T08:51:19.881Z</time>
</trkpt>
<trkpt lat="22.2485823" lon="113.8611056">
<ele>3.982</ele>
<time>2020-10-17T08:51:29.822Z</time>
</trkpt>
<trkpt lat="22.2486792" lon="113.8610907">
<ele>4.208</ele>
<time>2020-10-17T08:51:39.016Z</time>
</trkpt>
<trkpt lat="22.2487704" lon="113.8610625">
<ele>4.418</ele>
<time>2020-10-17T08:51:46.923Z</time>
</trkpt>
<trkpt lat="22.2488609" lon="113.8610479">
<ele>4.526</ele>
<time>2020-10-17T08:51:54.889Z</time>
</trkpt>
<trkpt lat="22.2489586" lon="113.8610472">
<ele>4.673</ele>
<time>2020-10-17T08:52:04.073Z</time>
</trkpt>
<trkpt lat="22.2490555" lon="113.8610332">
<ele>4.997</ele>
<time>2020-10-17T08:52:13.030Z</time>
</trkpt>
<trkpt lat="22.2491464" lon="113.8610195">
<ele>5.384</ele>
<time>2020-10-17T08:52:20.754Z</time>
</trkpt>
<trkpt lat="22.2492441" lon="113.8609901">
<ele>5.633</ele>
<time>2020-10-17T08:52:29.502Z</time>
</trkpt>
<trkpt lat="22.2493368" lon="113.8609798">
<ele>5.718</ele>
<time>2020-10-17T08:52:38.082Z</time>
</trkpt>
<trkpt lat="22.2494290" lon="113.8609734">
<ele>5.714</ele>
<time>2020-10-17T08:52:47.675Z</time>
</trkpt>
<trkpt lat="22.2495170" lon="113.8609461">
<ele>5.656</ele>
<time>2020-10-17T08:52:58.847Z</time>
</trkpt>
<trkpt lat="22.2496113" lon="113.8609272">
<ele>5.554</ele>
<time>2020-10-17T08:53:11.981Z</time>
</trkpt>
<trkpt lat="22.2497000" lon="113.8609073">
<ele>5.459</ele>
<time>2020-10-17T08:53:23.999Z</time>
</trkpt>
<trkpt lat="22.2497000" lon="113.8609073">
<ele>5.415</ele>
<time>2020-10-17T08:53:27.999Z</time>
</trkpt>
<trkpt lat="22.2497000" lon="113.8609073">
<ele>5.406</ele>
<time>2020-10-17T08:53:56.260Z</time>
</trkpt>
<trkpt lat="22.2497000" lon="113.8609073">
<ele>5.409</ele>
<time>2020-10-17T08:54:04.999Z</time>
</trkpt>
<trkpt lat="22.2497000" lon="113.8609073">
<ele>5.408</ele>
<time>2020-10-17T08:54:05.099Z</time>
</trkpt>
<trkpt lat="22.2497000" lon="113.8609073">
<ele>5.404</ele>
<time>2020-10-17T08:54:07.999Z</time>
</trkpt>
<trkpt lat="22.2497000" lon="113.8609073">
<ele>5.402</ele>
<time>2020-10-17T08:54:17.011Z</time>
</trkpt>
<trkpt lat="22.2498330" lon="113.8608897">
<ele>5.401</ele>
<time>2020-10-17T08:54:43.945Z</time>
</trkpt>
<trkpt lat="22.2499271" lon="113.8608764">
<ele>5.436</ele>
<time>2020-10-17T08:54:54.089Z</time>
</trkpt>
<trkpt lat="22.2500182" lon="113.8608405">
<ele>5.553</ele>
<time>2020-10-17T08:55:03.658Z</time>
</trkpt>
<trkpt lat="22.2501133" lon="113.8608266">
<ele>5.741</ele>
<time>2020-10-17T08:55:13.050Z</time>
</trkpt>
<trkpt lat="22.2502096" lon="113.8608083">
<ele>5.928</ele>
<time>2020-10-17T08:55:21.880Z</time>
</trkpt>
<trkpt lat="22.2503011" lon="113.8607882">
<ele>5.993</ele>
<time>2020-10-17T08:55:30.027Z</time>
</trkpt>
<trkpt lat="22.2503902" lon="113.8607723">
<ele>5.891</ele>
<time>2020-10-17T08:55:38.088Z</time>
</trkpt>
<trkpt lat="22.2504802" lon="113.8607648">
<ele>5.863</ele>
<time>2020-10-17T08:55:46.427Z</time>
</trkpt>
<trkpt lat="22.2505697" lon="113.8607319">
<ele>6.091</ele>
<time>2020-10-17T08:55:55.076Z</time>
</trkpt>
<trkpt lat="22.2506602" lon="113.8607231">
<ele>6.289</ele>
<time>2020-10-17T08:56:03.011Z</time>
</trkpt>
<trkpt lat="22.2507554" lon="113.8606961">
<ele>6.187</ele>
<time>2020-10-17T08:56:11.396Z</time>
</trkpt>
<trkpt lat="22.2508489" lon="113.8606909">
<ele>5.954</ele>
<time>2020-10-17T08:56:19.215Z</time>
</trkpt>
<trkpt lat="22.2509405" lon="113.8606714">
<ele>5.805</ele>
<time>2020-10-17T08:56:26.898Z</time>
</trkpt>
<trkpt lat="22.2510315" lon="113.8606558">
<ele>5.757</ele>
<time>2020-10-17T08:56:34.436Z</time>
</trkpt>
<trkpt lat="22.2511308" lon="113.8606436">
<ele>5.853</ele>
<time>2020-10-17T08:56:42.731Z</time>
</trkpt>
<trkpt lat="22.2512208" lon="113.8606283">
<ele>6.111</ele>
<time>2020-10-17T08:56:50.728Z</time>
</trkpt>
<trkpt lat="22.2513190" lon="113.8606248">
<ele>6.194</ele>
<time>2020-10-17T08:56:59.911Z</time>
</trkpt>
<trkpt lat="22.2514131" lon="113.8605997">
<ele>5.858</ele>
<time>2020-10-17T08:57:08.482Z</time>
</trkpt>
<trkpt lat="22.2514987" lon="113.8605667">
<ele>5.405</ele>
<time>2020-10-17T08:57:15.865Z</time>
</trkpt>
<trkpt lat="22.2515952" lon="113.8605486">
<ele>5.237</ele>
<time>2020-10-17T08:57:24.032Z</time>
</trkpt>
<trkpt lat="22.2516861" lon="113.8605371">
<ele>5.381</ele>
<time>2020-10-17T08:57:32.113Z</time>
</trkpt>
<trkpt lat="22.2517802" lon="113.8605112">
<ele>5.609</ele>
<time>2020-10-17T08:57:40.144Z</time>
</trkpt>
<trkpt lat="22.2518825" lon="113.8604841">
<ele>5.709</ele>
<time>2020-10-17T08:57:48.293Z</time>
</trkpt>
<trkpt lat="22.2519726" lon="113.8604692">
<ele>5.671</ele>
<time>2020-10-17T08:57:55.087Z</time>
</trkpt>
<trkpt lat="22.2520646" lon="113.8604604">
<ele>5.661</ele>
<time>2020-10-17T08:58:02.381Z</time>
</trkpt>
<trkpt lat="22.2521544" lon="113.8604544">
<ele>5.797</ele>
<time>2020-10-17T08:58:09.999Z</time>
</trkpt>
<trkpt lat="22.2521544" lon="113.8604544">
<ele>5.937</ele>
<time>2020-10-17T08:58:18.999Z</time>
</trkpt>
<trkpt lat="22.2521544" lon="113.8604544">
<ele>5.935</ele>
<time>2020-10-17T08:58:19.655Z</time>
</trkpt>
<trkpt lat="22.2521544" lon="113.8604544">
<ele>5.869</ele>
<time>2020-10-17T08:58:37.999Z</time>
</trkpt>
</trkseg>
</trk>
<extensions>
<fpdata xmlns="http://www.motionx.com/GPX-Extensions/1/1" sfv="10" origin="MotionXGPSFull 24.4 Build 5112 R64">
<bin enc="base64">
RgIAAAACAAAABfvc75fi10EBAAAATAEnnazi10EAAMIb4yrAQGAEAAAr1QsAbPBOtazA
cEDLk7P7HnoXQAAAAAARAAAAVHJvb3AgSGlrZSBUYWkgTwAWAAAAT2N0IDE3LCAyMDIw
IDExOjA2IGFtAAAAAABoASedrOLXQVRTqJ+s4tdBHNSjACHXZzmPa1dALAAAAAIAAAAo
HaB0CnlcQMcWMHeLPjZAbPBOtazAcEAAAAAAAAAUQAAAAAAAAAhAAAAAAADAdkAAAAAA
AAAAAAAAAABxPQrXo5BPQJ+nzDAZ8xRAAQAAAC5iIJ5sEmo/AQAAAAEAAAAfbz3EluLJ
P8PZiuPZn9C/AQAAAAEAAAAFAAAAIfMSeBbplEAAAAAAAAAAAAAAAAAAAAAAAAAAAAAA
AAAAAAAAAAAAAAAAAAAAAAAAGTwAAPj5f4+s4tdBAAAAAAAAAAAAAAAAAAAAAP8lRLwC
AAAAAAAAAAAAAAABAAAAKAAAADI0LjQgQnVpbGQgNTExMiBSNjQsIE1YQUUgOC4xIGIu
IDYyNlI2NAAAAAAA3WEAAAEAAAABkAAAAL9fil8/sopfBJT83O+X4tdBlPzc75fi10EA
AAAAAKAdPwAAAAACEvvc75fi10GwUkUOmOLXQQAAAJ5XaF5AAAAAAAIPDAcXmOLXQRlY
xBiY4tdBAAAA1NESYEAAAAAAAuY9xhuY4tdBRj5eKpji10EAAAAE0l5nQAAAAAACQG2G
O5ji10GalwZFmOLXQQAAADHnHmxAAAAAAAJ2bUdNmOLXQVQXxmSY4tdBAAAAEB7vc0AA
AAAAAsYxxmeY4tdB076FaJji10EAAEBTAR90QAAAAAACmDGGaJji10HeeMVomOLXQQAA
wCTTLnRAAAAAAALo2YZvmOLXQVMkhpOY4tdBAACAv6UufUAAAAAAAohhSKKY4tdB0lWG
J5ni10EAAABpET+PQAAAAAACzGSG3Zni10HydoUJmuLXQQAA4NZ5X5JAAAAAAALqyUYN
muLXQT+OBQ6a4tdBAAAwHGZrkkAAAAAAAqwEBg6a4tdByuFFDpri10EAABDuY2+SQAAA
AAAC0AwFE5ri10G0zIUZmuLXQQAAUOxv15JAAAAAAAKBJIgimuLXQW3kRCSa4tdBAAAQ
6zvzkkAAAAAAAt18xSaa4tdB1PAEOJri10EAAIAqMweUQAAAAAAC2GZFcZri10EmGAVz
muLXQQAAYD8uI5RAAAAAAAJUqQWCmuLXQShJBJua4tdBAACgPBizlUAAAAAAAnnLhqKa
4tdBBi/GsZri10EAAHB1DqeWQAAAAAACNZdGuJri10GOdoXHmuLXQQAAAGv8mpdAAAAA
AAIc8UlZneLXQaJHRVud4tdBAABg07G6l0AAAAAAAhEcCT+e4tdBDt4Fa57i10EAADDz
fXqaQAAAAAACz7wFvp7i10FkAAbOnuLXQQAAgCyCeptAAAAAAAKcxsXRnuLXQaKzhdWe
4tdBAADg/IC2m0AAAAAAAtEiCOme4tdBz2gGBZ/i10EAAMBcZXadQAAAAAACbi9GCJ/i
10HcTIUJn+LXQQAAoDNXip1AAAAAAAJOuoUOn+LXQQg8xQ6f4tdBAABAT0+OnUAAAAAA
AsDPxQ6f4tdBEoWFD5/i10EAAGCkSpqdQAAAAAACuVMGEp/i10GbrMUTn+LXQQAAgDJA
tp1AAAAAAAI6OsYVn+LXQWDJRmSf4tdBAABwkiRPoUAAAAAAAqOwxmef4tdB/HEFcp/i
10EAADidGqGhQAAAAAACkIkHdJ/i10EwK0h1n+LXQQAAOKofq6FAAAAAAALGOIh5n+LX
QSDRhnyf4tdBAAAIbRTDoUAAAAAAAuZ7yH6f4tdBBioIh5/i10EAAAjeEQWiQAAAAAAC
1NVIj5/i10FsrYehn+LXQQAAyJoIl6JAAAAAAAL6LIaon+LXQbu2RrCf4tdBAADQ6AzV
okAAAAAAArxeh7Of4tdBYtrGtZ/i10EAAADGCOeiQAAAAAACyhMGvJ/i10FuG4a+n+LX
QQAAIAMJ+6JAAAAAAAL4wsfOn+LXQXYVx8+f4tdBAAAQlwMDo0AAAAAAAsanB9mf4tdB
vjPI4Z/i10EAAND2B0mjQAAAAAAC0qfG8J/i10GgT8Xxn+LXQQAAQDX9UKNAAAAAAAJj
fsadoOLXQcL4RZ6g4tdBAAA4CPlUo0AAAAAAAjieRp6g4tdBuDrFnqDi10EAADjs7Vij
QAAAAAACJ75FqaDi10EoR4a2oOLXQQAAQDTywqNAAAAAAALkD4a5oOLXQeTWWrug4tdB
AABAbJjRo0AAAAAAAgSPB76g4tdB2zJGwKDi10EAAPiKjeOjQAAAAAAC9kRHxqDi10Ho
SxzLoOLXQQAAiMI1CqRAAAAAAALYE8jRoOLXQdTwRdig4tdBAABoqiQ+pEAAAAAAArgi
x9qg4tdB3nZG36Di10EAAJhLH2KkQAAAAAAC/PrG46Di10FF15jkoOLXQQAA4C2uaKRA
AAAAAAKSXsbooOLXQUiIx/2g4tdBAACQe7cQpUAAAAAAAkjchwWh4tdBUvRGFaHi10EA
AOA7sI6lQAAAAAACNExHF6Hi10GAoYYboeLXQQAAQOaqsKVAAAAAAAI25sYeoeLXQRIT
RzGh4tdBAAAgTaxEpkAAAAAAAlzkhjOh4tdB8pOGNKHi10EAANDJqUymQAAAAAACeJXH
NqHi10HOrMY5oeLXQQAAgISiZKZAAAAAAALEtQY9oeLXQQ2LBkqh4tdBAADILqHMpkAA
AAAAApoMx0uh4tdBnu1GVqHi10EAAOg2oCCnQAAAAAACw5uIcKHi10GzzwaCoeLXQQAA
aNaRrKdAAAAAAAKq1weHoeLXQYRDmpOh4tdBAAA4NSURqEAAAAAAAoqNBpah4tdBFY2H
oaHi10EAAJAxLW2oQAAAAAAC8N9GpaHi10FYHVCpoeLXQQAA0Bx3jahAAAAAAAIm+kYp
ouLXQVIIBjGi4tdBAAAwjm/LqEAAAAAAAtZYRkGi4tdB3bPFQ6Li10EAAGhmat+oQAAA
AAAC5KFGXaLi10Fen0VgouLXQQAAOFJi96hAAAAAAAJKuMZrouLXQcFyRG6i4tdBAADw
JVALqUAAAAAAArh2RXCi4tdBPlrbn6Li10EAACBC/4eqQAAAAAACigFGpaLi10E4F4So
ouLXQQAAkO/voapAAAAAAAJdw8azouLXQe63hb6i4tdBAAAYlOf3qkAAAAAAAvUuhsWi
4tdBFFza0qLi10EAABD9iGKrQAAAAAACVMjG4qLi10G8mEXtouLXQQAAUIB/tqtAAAAA
AAK45Yj0ouLXQcKjBvei4tdBAACgcG3Kq0AAAAAAAsgOx/qi4tdBPZtG/6Li10EAAEjU
ae6rQAAAAAACYvHFAKPi10ERb0Uio+LXQQAAwMFl+qxAAAAAAAISwkcxo+LXQT5ZxTOj
4tdBAAAge1IOrUAAAAAAAlJ6hkej4tdBGVWFTqPi10EAAFhRSUatQAAAAAACeCwGVKPi
10HmW92no+LXQQAAyMwC5a9AAAAAAAKHM0eso+LXQSZRHa2j4tdBAADAubPrr0AAAAAA
A1MjXLKj4tdBUyNcsqPi10EAAMC5s+uvQAAAAAAEC9GGtaPi10EL0Ya1o+LXQQAAwLmz
669AAAAAAAJSSoXGo+LXQYpdxsmj4tdBAADAKd4CsEAAAAAAAirmRemj4tdBXtOF7KPi
10EAAJDe3Q+wQAAAAAAC6DXJOqTi10FIbYZVpOLXQQAAELzSerBAAAAAAAJxj8hZpOLX
QcrG2lqk4tdBAAB0mRt/sEAAAAAAAlT9x12k4tdBPC1HZ6Ti10EAABRZGKWwQAAAAAAC
HD7HaaTi10GiDEaJpOLXQQAALJMTI7FAAAAAAAJAFkeOpOLXQWa82o6k4tdBAADEK2Il
sUAAAAAAAl5nR5Ok4tdByM+GmqTi10EAAGzNX0KxQAAAAAACZjLHn6Ti10FXsgalpOLX
QQAAMM1dV7FAAAAAAAIai8eopOLXQZLMV8ek4tdBAAAQ057RsUAAAAAAAtDVh8mk4tdB
KT+G0aTi10EAAHR4mPGxQAAAAAAClFCH1KTi10HSGBrVpOLXQQAAbJnj87FAAAAAAAJW
Y0bbpOLXQVYPB+Ok4tdBAABsSeYSskAAAAAAAo+MB+Sk4tdBpYWG/KTi10EAAMQt4nSy
QAAAAAACfpBH/6Ti10GMDQcMpeLXQQAA/CHgp7JAAAAAAAImO4eVpeLXQXodB9Gl4tdB
AABMq9+Vs0AAAAAAAtf3x8im4tdBLAtHEKfi10EAAKD427O0QAAAAAACu2CHEafi10Em
cIYqp+LXQQAATDbYF7VAAAAAAALfUYgup+LXQQ8o1y+n4tdBAAAMjxMdtUAAAAAAAiKN
yIKn4tdBiIQbhqfi10EAAKRsXyq1QAAAAAACsrrG3Kfi10H1gYbop+LXQQAAsIleWbVA
AAAAAAKzJIfrp+LXQYXPhfSn4tdBAAD4NFl9tUAAAAAAAga/Bvyn4tdBkL5FAKji10EA
ACAzVY61QAAAAAACjnpGB6ji10HMJVoIqOLXQQAAGOCjkrVAAAAAAAJ+5MYZqOLXQb7z
mhuo4tdBAAAYHfSZtUAAAAAAAr4yBkGo4tdBHowYQ6ji10EAAJiCPaK1QAAAAAACnWbG
S6ji10EYPxmDqOLXQQAAhOSIf7ZAAAAAAALH18aMqOLXQdhFxZio4tdBAADInIKvtkAA
AAAAAsIvBqKo4tdBN/wXoqji10EAAJzOya+2QAAAAAACEopFoqji10Fs6wWjqOLXQQAA
BFTLsrZAAAAAAAJ8nYi6qOLXQeYlxbyo4tdBAACsdb27tkAAAAAAArq8hb6o4tdBXvJW
4aji10EAADxMAke3QAAAAAACvHtH46ji10HsoIbsqOLXQQAA/OD+a7dAAAAAAALi4wby
qOLXQcqnhg6p4tdBAACc8P3dt0AAAAAAAg5NSiOp4tdB4WFcQ6ni10EAAOhDRl64QAAA
AAAC2pOGuqni10H8HNrZqeLXQQAAcGiU27hAAAAAAALkEojfqeLXQWb21+Wp4tdBAAB4
9tP0uEAAAAAAAno1h+ep4tdB8ZwG6Kni10EAAFSU0fa4QAAAAAAC4GcH6Kni10GEMIfo
qeLXQQAA5LbQ+LhAAAAAAAJxAkfqqeLXQdCeBuyp4tdBAABgKM//uEAAAAAAAh7ER/Cp
4tdBxR5NBqri10EAAPyS5Fe5QAAAAAACxjOIFari10HNApkpquLXQQAAGM8nqLlAAAAA
AAKh2odAquLXQZz+RUKq4tdBAAAEXyCvuUAAAAAAAsgKhUaq4tdBMH5GR6ri10EAAKQs
JrK5QAAAAAACEsEIT6ri10E09MZZquLXQQAALPke3blAAAAAAAJcdUdkquLXQTCAB6Gq
4tdBAAB8JB/QukAAAAAAAoqvB6eq4tdBkPMWrKri10EAAJQ0XOS6QAAAAAACec3Fs6ri
10E2dUW7quLXQQAAiNNaArtAAAAAAAJu9wW+quLXQcQIRsyq4tdBAADgGFs7u0AAAAAA
Agyvxtaq4tdB2nUF96ri10EAABg0Vry7QAAAAAACrWzG+qri10H9okUHq+LXQQAAWA1T
7rtAAAAAAALMCsYMq+LXQWH8hBur4tdBAACs004pvEAAAAAAAmvUBR2r4tdBnpMaSqvi
10EAAHjQod28QAAAAAACgAnHX6vi10ECvIViq+LXQQAAgJqc6LxAAAAAAAJpHAdnq+LX
QdQMyG2r4tdBAAAsXKADvUAAAAAAAga7R4Sr4tdBxmjGh6vi10EAACwTmxG9QAAAAAAC
vhcIjavi10GG5Eabq+LXQQAATEaWSr1AAAAAAAK0q4aiq+LXQZ8BWMqr4tdBAAD4ndvp
vUAAAAAAAoI7yN2r4tdBjE7HE6zi10EAACDq18G+QAAAAAACqIlHF6zi10FK6UZCrOLX
QQAAqGjVbb9AAAAAAALkRwdLrOLXQaa7hkus4tdBAACwN9Nvv0AAAAAAAuS4h0us4tdB
RtAGTKzi10EAADiVz3G/QAAAAAAC3BEIU6zi10Hj4QaLrOLXQQAAqmrlKMBAAAAAAAIh
kseOrOLXQa1qxo+s4tdBAADCG+MqwEAAAAAAAAAAAA==
</bin>
</fpdata>
</extensions>
</gpx>
